<?xml version="1.0" encoding="UTF-8" standalone="no" ?>
<gpx xmlns="http://www.topografix.com/GPX/1/1" xmlns:xsi="http://www.w3.org/2001/XMLSchema-instance" xsi:schemaLocation="http://www.topografix.com/GPX/1/1 http://www.topografix.com/GPX/1/1/gpx.xsd" version="1.1" creator="VisuGPX - https://www.visugpx.com">
  <metadata>
    <name>PLRV1078-Urrugne-DescenteFousVTT</name>
  </metadata>
  <trk>
    <name><![CDATA[PLRV1078-Urrugne-DescenteFousVTT]]></name>
    <trkseg>
      <trkpt lat="43.30981" lon="-1.68651">
        <ele>308.4</ele>
        <time>2020-07-04T13:44:56Z</time>
      </trkpt>
      <trkpt lat="43.30981" lon="-1.68651">
        <ele>308.5</ele>
        <time>2020-07-04T13:44:57Z</time>
      </trkpt>
      <trkpt lat="43.30977" lon="-1.68663">
        <ele>309.2</ele>
        <time>2020-07-04T13:45:12Z</time>
      </trkpt>
      <trkpt lat="43.30969" lon="-1.68657">
        <ele>309.6</ele>
        <time>2020-07-04T13:45:19Z</time>
      </trkpt>
      <trkpt lat="43.30963" lon="-1.68647">
        <ele>309.8</ele>
        <time>2020-07-04T13:45:24Z</time>
      </trkpt>
      <trkpt lat="43.30957" lon="-1.68636">
        <ele>310.2</ele>
        <time>2020-07-04T13:45:30Z</time>
      </trkpt>
      <trkpt lat="43.30956" lon="-1.68649">
        <ele>310.7</ele>
        <time>2020-07-04T13:45:38Z</time>
      </trkpt>
      <trkpt lat="43.30959" lon="-1.68661">
        <ele>311.2</ele>
        <time>2020-07-04T13:45:43Z</time>
      </trkpt>
      <trkpt lat="43.30963" lon="-1.68674">
        <ele>311.6</ele>
        <time>2020-07-04T13:45:48Z</time>
      </trkpt>
      <trkpt lat="43.30968" lon="-1.68686">
        <ele>312.4</ele>
        <time>2020-07-04T13:45:53Z</time>
      </trkpt>
      <trkpt lat="43.30973" lon="-1.68698">
        <ele>313.4</ele>
        <time>2020-07-04T13:45:59Z</time>
      </trkpt>
      <trkpt lat="43.30979" lon="-1.6871">
        <ele>314.2</ele>
        <time>2020-07-04T13:46:05Z</time>
      </trkpt>
      <trkpt lat="43.30985" lon="-1.6872">
        <ele>315.4</ele>
        <time>2020-07-04T13:46:11Z</time>
      </trkpt>
      <trkpt lat="43.30991" lon="-1.68732">
        <ele>316.8</ele>
        <time>2020-07-04T13:46:17Z</time>
      </trkpt>
      <trkpt lat="43.30997" lon="-1.68744">
        <ele>318.3</ele>
        <time>2020-07-04T13:46:23Z</time>
      </trkpt>
      <trkpt lat="43.31004" lon="-1.68755">
        <ele>319.8</ele>
        <time>2020-07-04T13:46:29Z</time>
      </trkpt>
      <trkpt lat="43.3101" lon="-1.68765">
        <ele>320.8</ele>
        <time>2020-07-04T13:46:34Z</time>
      </trkpt>
      <trkpt lat="43.31016" lon="-1.68777">
        <ele>322.1</ele>
        <time>2020-07-04T13:46:40Z</time>
      </trkpt>
      <trkpt lat="43.31021" lon="-1.6879">
        <ele>323.5</ele>
        <time>2020-07-04T13:46:46Z</time>
      </trkpt>
      <trkpt lat="43.31027" lon="-1.688">
        <ele>324.4</ele>
        <time>2020-07-04T13:46:51Z</time>
      </trkpt>
      <trkpt lat="43.31032" lon="-1.68813">
        <ele>325.2</ele>
        <time>2020-07-04T13:46:56Z</time>
      </trkpt>
      <trkpt lat="43.31038" lon="-1.68826">
        <ele>326.1</ele>
        <time>2020-07-04T13:47:01Z</time>
      </trkpt>
      <trkpt lat="43.31043" lon="-1.68839">
        <ele>326.7</ele>
        <time>2020-07-04T13:47:06Z</time>
      </trkpt>
      <trkpt lat="43.31048" lon="-1.68849">
        <ele>327.1</ele>
        <time>2020-07-04T13:47:10Z</time>
      </trkpt>
      <trkpt lat="43.31055" lon="-1.68861">
        <ele>327.4</ele>
        <time>2020-07-04T13:47:15Z</time>
      </trkpt>
      <trkpt lat="43.31061" lon="-1.68872">
        <ele>327.7</ele>
        <time>2020-07-04T13:47:19Z</time>
      </trkpt>
      <trkpt lat="43.31066" lon="-1.68883">
        <ele>327.9</ele>
        <time>2020-07-04T13:47:23Z</time>
      </trkpt>
      <trkpt lat="43.31072" lon="-1.68894">
        <ele>328.3</ele>
        <time>2020-07-04T13:47:27Z</time>
      </trkpt>
      <trkpt lat="43.31078" lon="-1.68906">
        <ele>329</ele>
        <time>2020-07-04T13:47:32Z</time>
      </trkpt>
      <trkpt lat="43.31084" lon="-1.68917">
        <ele>329.9</ele>
        <time>2020-07-04T13:47:37Z</time>
      </trkpt>
      <trkpt lat="43.3109" lon="-1.68928">
        <ele>331</ele>
        <time>2020-07-04T13:47:42Z</time>
      </trkpt>
      <trkpt lat="43.31096" lon="-1.68939">
        <ele>332.1</ele>
        <time>2020-07-04T13:47:47Z</time>
      </trkpt>
      <trkpt lat="43.31104" lon="-1.68948">
        <ele>333.1</ele>
        <time>2020-07-04T13:47:52Z</time>
      </trkpt>
      <trkpt lat="43.31113" lon="-1.68956">
        <ele>334.2</ele>
        <time>2020-07-04T13:47:57Z</time>
      </trkpt>
      <trkpt lat="43.31121" lon="-1.68965">
        <ele>335.5</ele>
        <time>2020-07-04T13:48:02Z</time>
      </trkpt>
      <trkpt lat="43.31129" lon="-1.68975">
        <ele>336.7</ele>
        <time>2020-07-04T13:48:07Z</time>
      </trkpt>
      <trkpt lat="43.31136" lon="-1.68986">
        <ele>337.7</ele>
        <time>2020-07-04T13:48:12Z</time>
      </trkpt>
      <trkpt lat="43.31142" lon="-1.68996">
        <ele>338.8</ele>
        <time>2020-07-04T13:48:17Z</time>
      </trkpt>
      <trkpt lat="43.31146" lon="-1.69008">
        <ele>339.9</ele>
        <time>2020-07-04T13:48:22Z</time>
      </trkpt>
      <trkpt lat="43.31149" lon="-1.69021">
        <ele>340.9</ele>
        <time>2020-07-04T13:48:27Z</time>
      </trkpt>
      <trkpt lat="43.31152" lon="-1.69034">
        <ele>342</ele>
        <time>2020-07-04T13:48:32Z</time>
      </trkpt>
      <trkpt lat="43.31153" lon="-1.69046">
        <ele>342.9</ele>
        <time>2020-07-04T13:48:37Z</time>
      </trkpt>
      <trkpt lat="43.31154" lon="-1.69061">
        <ele>344.1</ele>
        <time>2020-07-04T13:48:43Z</time>
      </trkpt>
      <trkpt lat="43.31154" lon="-1.69074">
        <ele>346</ele>
        <time>2020-07-04T13:48:49Z</time>
      </trkpt>
      <trkpt lat="43.31152" lon="-1.69087">
        <ele>347.6</ele>
        <time>2020-07-04T13:48:55Z</time>
      </trkpt>
      <trkpt lat="43.31149" lon="-1.691">
        <ele>348.8</ele>
        <time>2020-07-04T13:49:01Z</time>
      </trkpt>
      <trkpt lat="43.31146" lon="-1.69113">
        <ele>350.3</ele>
        <time>2020-07-04T13:49:07Z</time>
      </trkpt>
      <trkpt lat="43.31144" lon="-1.69125">
        <ele>351.4</ele>
        <time>2020-07-04T13:49:11Z</time>
      </trkpt>
      <trkpt lat="43.31139" lon="-1.69135">
        <ele>361.7</ele>
        <time>2020-07-04T13:52:50Z</time>
      </trkpt>
      <trkpt lat="43.3114" lon="-1.6915">
        <ele>361.9</ele>
        <time>2020-07-04T13:52:56Z</time>
      </trkpt>
      <trkpt lat="43.31141" lon="-1.69165">
        <ele>362.6</ele>
        <time>2020-07-04T13:53:01Z</time>
      </trkpt>
      <trkpt lat="43.31143" lon="-1.69177">
        <ele>363.7</ele>
        <time>2020-07-04T13:53:06Z</time>
      </trkpt>
      <trkpt lat="43.31146" lon="-1.6919">
        <ele>365.5</ele>
        <time>2020-07-04T13:53:12Z</time>
      </trkpt>
      <trkpt lat="43.31149" lon="-1.69202">
        <ele>367</ele>
        <time>2020-07-04T13:53:17Z</time>
      </trkpt>
      <trkpt lat="43.31154" lon="-1.69216">
        <ele>368.8</ele>
        <time>2020-07-04T13:53:23Z</time>
      </trkpt>
      <trkpt lat="43.31157" lon="-1.69229">
        <ele>370.5</ele>
        <time>2020-07-04T13:53:29Z</time>
      </trkpt>
      <trkpt lat="43.31159" lon="-1.69242">
        <ele>371.9</ele>
        <time>2020-07-04T13:53:34Z</time>
      </trkpt>
      <trkpt lat="43.31161" lon="-1.69255">
        <ele>373.5</ele>
        <time>2020-07-04T13:53:39Z</time>
      </trkpt>
      <trkpt lat="43.31165" lon="-1.69266">
        <ele>375</ele>
        <time>2020-07-04T13:53:44Z</time>
      </trkpt>
      <trkpt lat="43.31172" lon="-1.69277">
        <ele>377</ele>
        <time>2020-07-04T13:53:50Z</time>
      </trkpt>
      <trkpt lat="43.3118" lon="-1.69286">
        <ele>378.7</ele>
        <time>2020-07-04T13:53:56Z</time>
      </trkpt>
      <trkpt lat="43.31188" lon="-1.69293">
        <ele>380.6</ele>
        <time>2020-07-04T13:54:01Z</time>
      </trkpt>
      <trkpt lat="43.31195" lon="-1.69301">
        <ele>383.3</ele>
        <time>2020-07-04T13:54:07Z</time>
      </trkpt>
      <trkpt lat="43.31203" lon="-1.69309">
        <ele>385.8</ele>
        <time>2020-07-04T13:54:16Z</time>
      </trkpt>
      <trkpt lat="43.3121" lon="-1.69316">
        <ele>387.2</ele>
        <time>2020-07-04T13:54:25Z</time>
      </trkpt>
      <trkpt lat="43.31219" lon="-1.69323">
        <ele>389</ele>
        <time>2020-07-04T13:54:36Z</time>
      </trkpt>
      <trkpt lat="43.31227" lon="-1.69329">
        <ele>390</ele>
        <time>2020-07-04T13:54:43Z</time>
      </trkpt>
      <trkpt lat="43.31235" lon="-1.69335">
        <ele>390.6</ele>
        <time>2020-07-04T13:54:49Z</time>
      </trkpt>
      <trkpt lat="43.31243" lon="-1.69344">
        <ele>394.4</ele>
        <time>2020-07-04T13:57:26Z</time>
      </trkpt>
      <trkpt lat="43.31251" lon="-1.69348">
        <ele>394.4</ele>
        <time>2020-07-04T13:57:37Z</time>
      </trkpt>
      <trkpt lat="43.3126" lon="-1.69356">
        <ele>394.3</ele>
        <time>2020-07-04T13:57:40Z</time>
      </trkpt>
      <trkpt lat="43.31268" lon="-1.69365">
        <ele>394.1</ele>
        <time>2020-07-04T13:57:43Z</time>
      </trkpt>
      <trkpt lat="43.31275" lon="-1.69376">
        <ele>393.7</ele>
        <time>2020-07-04T13:57:47Z</time>
      </trkpt>
      <trkpt lat="43.31283" lon="-1.69384">
        <ele>393.5</ele>
        <time>2020-07-04T13:57:50Z</time>
      </trkpt>
      <trkpt lat="43.31293" lon="-1.69383">
        <ele>393.3</ele>
        <time>2020-07-04T13:57:53Z</time>
      </trkpt>
      <trkpt lat="43.31304" lon="-1.69374">
        <ele>393.1</ele>
        <time>2020-07-04T13:57:56Z</time>
      </trkpt>
      <trkpt lat="43.31313" lon="-1.69363">
        <ele>393</ele>
        <time>2020-07-04T13:57:59Z</time>
      </trkpt>
      <trkpt lat="43.31321" lon="-1.69355">
        <ele>392.8</ele>
        <time>2020-07-04T13:58:02Z</time>
      </trkpt>
      <trkpt lat="43.31332" lon="-1.69355">
        <ele>392.6</ele>
        <time>2020-07-04T13:58:06Z</time>
      </trkpt>
      <trkpt lat="43.31343" lon="-1.69359">
        <ele>392.5</ele>
        <time>2020-07-04T13:58:11Z</time>
      </trkpt>
      <trkpt lat="43.31348" lon="-1.6937">
        <ele>393.2</ele>
        <time>2020-07-04T13:58:17Z</time>
      </trkpt>
      <trkpt lat="43.3135" lon="-1.69383">
        <ele>393.9</ele>
        <time>2020-07-04T13:58:23Z</time>
      </trkpt>
      <trkpt lat="43.31353" lon="-1.69396">
        <ele>394.5</ele>
        <time>2020-07-04T13:58:29Z</time>
      </trkpt>
      <trkpt lat="43.31355" lon="-1.69408">
        <ele>395.5</ele>
        <time>2020-07-04T13:58:34Z</time>
      </trkpt>
      <trkpt lat="43.31357" lon="-1.69422">
        <ele>396.7</ele>
        <time>2020-07-04T13:58:40Z</time>
      </trkpt>
      <trkpt lat="43.31359" lon="-1.69434">
        <ele>397.8</ele>
        <time>2020-07-04T13:58:45Z</time>
      </trkpt>
      <trkpt lat="43.31362" lon="-1.69448">
        <ele>399.2</ele>
        <time>2020-07-04T13:58:51Z</time>
      </trkpt>
      <trkpt lat="43.31366" lon="-1.6946">
        <ele>400.4</ele>
        <time>2020-07-04T13:58:57Z</time>
      </trkpt>
      <trkpt lat="43.3137" lon="-1.69472">
        <ele>401.6</ele>
        <time>2020-07-04T13:59:02Z</time>
      </trkpt>
      <trkpt lat="43.31372" lon="-1.69485">
        <ele>403.2</ele>
        <time>2020-07-04T13:59:07Z</time>
      </trkpt>
      <trkpt lat="43.31372" lon="-1.69498">
        <ele>404.7</ele>
        <time>2020-07-04T13:59:12Z</time>
      </trkpt>
      <trkpt lat="43.31372" lon="-1.6951">
        <ele>406</ele>
        <time>2020-07-04T13:59:17Z</time>
      </trkpt>
      <trkpt lat="43.31371" lon="-1.69524">
        <ele>407.4</ele>
        <time>2020-07-04T13:59:23Z</time>
      </trkpt>
      <trkpt lat="43.3137" lon="-1.69538">
        <ele>409</ele>
        <time>2020-07-04T13:59:29Z</time>
      </trkpt>
      <trkpt lat="43.31368" lon="-1.69551">
        <ele>410.7</ele>
        <time>2020-07-04T13:59:35Z</time>
      </trkpt>
      <trkpt lat="43.31359" lon="-1.69544">
        <ele>413.2</ele>
        <time>2020-07-04T13:59:44Z</time>
      </trkpt>
      <trkpt lat="43.31355" lon="-1.69531">
        <ele>414.7</ele>
        <time>2020-07-04T13:59:50Z</time>
      </trkpt>
      <trkpt lat="43.31349" lon="-1.6952">
        <ele>416.3</ele>
        <time>2020-07-04T13:59:56Z</time>
      </trkpt>
      <trkpt lat="43.31342" lon="-1.69509">
        <ele>417.7</ele>
        <time>2020-07-04T14:00:02Z</time>
      </trkpt>
      <trkpt lat="43.31335" lon="-1.69501">
        <ele>418.9</ele>
        <time>2020-07-04T14:00:07Z</time>
      </trkpt>
      <trkpt lat="43.31327" lon="-1.69494">
        <ele>420.1</ele>
        <time>2020-07-04T14:00:12Z</time>
      </trkpt>
      <trkpt lat="43.31319" lon="-1.69489">
        <ele>421.4</ele>
        <time>2020-07-04T14:00:17Z</time>
      </trkpt>
      <trkpt lat="43.3131" lon="-1.69482">
        <ele>422.9</ele>
        <time>2020-07-04T14:00:23Z</time>
      </trkpt>
      <trkpt lat="43.313" lon="-1.69476">
        <ele>424.9</ele>
        <time>2020-07-04T14:00:30Z</time>
      </trkpt>
      <trkpt lat="43.31291" lon="-1.6947">
        <ele>427</ele>
        <time>2020-07-04T14:00:37Z</time>
      </trkpt>
      <trkpt lat="43.31283" lon="-1.69476">
        <ele>429.6</ele>
        <time>2020-07-04T14:00:46Z</time>
      </trkpt>
      <trkpt lat="43.31285" lon="-1.69489">
        <ele>431.4</ele>
        <time>2020-07-04T14:00:53Z</time>
      </trkpt>
      <trkpt lat="43.31287" lon="-1.69501">
        <ele>433.3</ele>
        <time>2020-07-04T14:01:00Z</time>
      </trkpt>
      <trkpt lat="43.31288" lon="-1.69514">
        <ele>435.5</ele>
        <time>2020-07-04T14:01:07Z</time>
      </trkpt>
      <trkpt lat="43.31288" lon="-1.69528">
        <ele>437.5</ele>
        <time>2020-07-04T14:01:14Z</time>
      </trkpt>
      <trkpt lat="43.31287" lon="-1.69541">
        <ele>440.1</ele>
        <time>2020-07-04T14:01:21Z</time>
      </trkpt>
      <trkpt lat="43.31282" lon="-1.69553">
        <ele>450.9</ele>
        <time>2020-07-04T14:05:52Z</time>
      </trkpt>
      <trkpt lat="43.31281" lon="-1.69568">
        <ele>451.1</ele>
        <time>2020-07-04T14:05:59Z</time>
      </trkpt>
      <trkpt lat="43.31282" lon="-1.69582">
        <ele>451.8</ele>
        <time>2020-07-04T14:06:05Z</time>
      </trkpt>
      <trkpt lat="43.31282" lon="-1.69595">
        <ele>452.5</ele>
        <time>2020-07-04T14:06:10Z</time>
      </trkpt>
      <trkpt lat="43.31284" lon="-1.69609">
        <ele>453.1</ele>
        <time>2020-07-04T14:06:15Z</time>
      </trkpt>
      <trkpt lat="43.31284" lon="-1.69621">
        <ele>453.5</ele>
        <time>2020-07-04T14:06:19Z</time>
      </trkpt>
      <trkpt lat="43.31285" lon="-1.69634">
        <ele>454.3</ele>
        <time>2020-07-04T14:06:24Z</time>
      </trkpt>
      <trkpt lat="43.31286" lon="-1.69648">
        <ele>454.8</ele>
        <time>2020-07-04T14:06:29Z</time>
      </trkpt>
      <trkpt lat="43.31287" lon="-1.69661">
        <ele>455.3</ele>
        <time>2020-07-04T14:06:34Z</time>
      </trkpt>
      <trkpt lat="43.31287" lon="-1.69674">
        <ele>456.2</ele>
        <time>2020-07-04T14:06:39Z</time>
      </trkpt>
      <trkpt lat="43.31284" lon="-1.69688">
        <ele>457.6</ele>
        <time>2020-07-04T14:06:45Z</time>
      </trkpt>
      <trkpt lat="43.31279" lon="-1.69699">
        <ele>458.8</ele>
        <time>2020-07-04T14:06:50Z</time>
      </trkpt>
      <trkpt lat="43.31273" lon="-1.6971">
        <ele>459.9</ele>
        <time>2020-07-04T14:06:55Z</time>
      </trkpt>
      <trkpt lat="43.31268" lon="-1.69719">
        <ele>461</ele>
        <time>2020-07-04T14:07:00Z</time>
      </trkpt>
      <trkpt lat="43.3126" lon="-1.69729">
        <ele>462.5</ele>
        <time>2020-07-04T14:07:06Z</time>
      </trkpt>
      <trkpt lat="43.31253" lon="-1.69738">
        <ele>464</ele>
        <time>2020-07-04T14:07:12Z</time>
      </trkpt>
      <trkpt lat="43.31246" lon="-1.69747">
        <ele>465.5</ele>
        <time>2020-07-04T14:07:18Z</time>
      </trkpt>
      <trkpt lat="43.31238" lon="-1.69757">
        <ele>467.5</ele>
        <time>2020-07-04T14:07:25Z</time>
      </trkpt>
      <trkpt lat="43.3123" lon="-1.69766">
        <ele>469.7</ele>
        <time>2020-07-04T14:07:32Z</time>
      </trkpt>
      <trkpt lat="43.31223" lon="-1.69775">
        <ele>471.9</ele>
        <time>2020-07-04T14:07:39Z</time>
      </trkpt>
      <trkpt lat="43.31216" lon="-1.69785">
        <ele>473.8</ele>
        <time>2020-07-04T14:07:46Z</time>
      </trkpt>
      <trkpt lat="43.31208" lon="-1.69793">
        <ele>475.5</ele>
        <time>2020-07-04T14:07:52Z</time>
      </trkpt>
      <trkpt lat="43.31202" lon="-1.69802">
        <ele>477.4</ele>
        <time>2020-07-04T14:07:58Z</time>
      </trkpt>
      <trkpt lat="43.31196" lon="-1.69813">
        <ele>478.8</ele>
        <time>2020-07-04T14:08:04Z</time>
      </trkpt>
      <trkpt lat="43.31192" lon="-1.69826">
        <ele>480.7</ele>
        <time>2020-07-04T14:08:10Z</time>
      </trkpt>
      <trkpt lat="43.3119" lon="-1.69838">
        <ele>482.2</ele>
        <time>2020-07-04T14:08:15Z</time>
      </trkpt>
      <trkpt lat="43.31189" lon="-1.69853">
        <ele>483.7</ele>
        <time>2020-07-04T14:08:21Z</time>
      </trkpt>
      <trkpt lat="43.31186" lon="-1.69867">
        <ele>484.8</ele>
        <time>2020-07-04T14:08:27Z</time>
      </trkpt>
      <trkpt lat="43.31184" lon="-1.69882">
        <ele>485.5</ele>
        <time>2020-07-04T14:08:32Z</time>
      </trkpt>
      <trkpt lat="43.31182" lon="-1.69895">
        <ele>486.5</ele>
        <time>2020-07-04T14:08:37Z</time>
      </trkpt>
      <trkpt lat="43.31181" lon="-1.69908">
        <ele>487.6</ele>
        <time>2020-07-04T14:08:42Z</time>
      </trkpt>
      <trkpt lat="43.31178" lon="-1.69922">
        <ele>488.5</ele>
        <time>2020-07-04T14:08:47Z</time>
      </trkpt>
      <trkpt lat="43.31177" lon="-1.69936">
        <ele>489.3</ele>
        <time>2020-07-04T14:08:52Z</time>
      </trkpt>
      <trkpt lat="43.31175" lon="-1.69951">
        <ele>490.5</ele>
        <time>2020-07-04T14:08:57Z</time>
      </trkpt>
      <trkpt lat="43.31173" lon="-1.69965">
        <ele>491.5</ele>
        <time>2020-07-04T14:09:02Z</time>
      </trkpt>
      <trkpt lat="43.31171" lon="-1.69979">
        <ele>492.5</ele>
        <time>2020-07-04T14:09:07Z</time>
      </trkpt>
      <trkpt lat="43.31169" lon="-1.69994">
        <ele>493.5</ele>
        <time>2020-07-04T14:09:12Z</time>
      </trkpt>
      <trkpt lat="43.31168" lon="-1.70007">
        <ele>494.3</ele>
        <time>2020-07-04T14:09:16Z</time>
      </trkpt>
      <trkpt lat="43.31166" lon="-1.7002">
        <ele>495.1</ele>
        <time>2020-07-04T14:09:19Z</time>
      </trkpt>
      <trkpt lat="43.31165" lon="-1.70033">
        <ele>501</ele>
        <time>2020-07-04T14:12:44Z</time>
      </trkpt>
      <trkpt lat="43.31169" lon="-1.70048">
        <ele>506.4</ele>
        <time>2020-07-04T14:18:23Z</time>
      </trkpt>
      <trkpt lat="43.31179" lon="-1.70058">
        <ele>506.2</ele>
        <time>2020-07-04T14:18:26Z</time>
      </trkpt>
      <trkpt lat="43.31189" lon="-1.70066">
        <ele>505.5</ele>
        <time>2020-07-04T14:18:28Z</time>
      </trkpt>
      <trkpt lat="43.31198" lon="-1.70076">
        <ele>504.8</ele>
        <time>2020-07-04T14:18:30Z</time>
      </trkpt>
      <trkpt lat="43.31208" lon="-1.70084">
        <ele>503.7</ele>
        <time>2020-07-04T14:18:32Z</time>
      </trkpt>
      <trkpt lat="43.31217" lon="-1.70092">
        <ele>502.3</ele>
        <time>2020-07-04T14:18:34Z</time>
      </trkpt>
      <trkpt lat="43.31225" lon="-1.70099">
        <ele>500.7</ele>
        <time>2020-07-04T14:18:36Z</time>
      </trkpt>
      <trkpt lat="43.31233" lon="-1.70108">
        <ele>499</ele>
        <time>2020-07-04T14:18:38Z</time>
      </trkpt>
      <trkpt lat="43.31241" lon="-1.70116">
        <ele>497.4</ele>
        <time>2020-07-04T14:18:40Z</time>
      </trkpt>
      <trkpt lat="43.31249" lon="-1.70123">
        <ele>495.7</ele>
        <time>2020-07-04T14:18:42Z</time>
      </trkpt>
      <trkpt lat="43.31258" lon="-1.7013">
        <ele>493.1</ele>
        <time>2020-07-04T14:18:45Z</time>
      </trkpt>
      <trkpt lat="43.31266" lon="-1.70139">
        <ele>484.1</ele>
        <time>2020-07-04T14:18:56Z</time>
      </trkpt>
      <trkpt lat="43.31273" lon="-1.70153">
        <ele>481.8</ele>
        <time>2020-07-04T14:19:00Z</time>
      </trkpt>
      <trkpt lat="43.31279" lon="-1.70167">
        <ele>479.4</ele>
        <time>2020-07-04T14:19:03Z</time>
      </trkpt>
      <trkpt lat="43.31286" lon="-1.70181">
        <ele>476.8</ele>
        <time>2020-07-04T14:19:06Z</time>
      </trkpt>
      <trkpt lat="43.31292" lon="-1.70191">
        <ele>475</ele>
        <time>2020-07-04T14:19:08Z</time>
      </trkpt>
      <trkpt lat="43.31298" lon="-1.70202">
        <ele>472.9</ele>
        <time>2020-07-04T14:19:10Z</time>
      </trkpt>
      <trkpt lat="43.31304" lon="-1.70213">
        <ele>470.5</ele>
        <time>2020-07-04T14:19:12Z</time>
      </trkpt>
      <trkpt lat="43.31309" lon="-1.70222">
        <ele>468.2</ele>
        <time>2020-07-04T14:19:14Z</time>
      </trkpt>
      <trkpt lat="43.31316" lon="-1.70232">
        <ele>464.5</ele>
        <time>2020-07-04T14:19:17Z</time>
      </trkpt>
      <trkpt lat="43.3132" lon="-1.70245">
        <ele>443.5</ele>
        <time>2020-07-04T14:20:36Z</time>
      </trkpt>
      <trkpt lat="43.31327" lon="-1.70261">
        <ele>443.2</ele>
        <time>2020-07-04T14:20:39Z</time>
      </trkpt>
      <trkpt lat="43.31333" lon="-1.70275">
        <ele>442.8</ele>
        <time>2020-07-04T14:20:41Z</time>
      </trkpt>
      <trkpt lat="43.3134" lon="-1.70291">
        <ele>442.2</ele>
        <time>2020-07-04T14:20:43Z</time>
      </trkpt>
      <trkpt lat="43.31348" lon="-1.70306">
        <ele>441.2</ele>
        <time>2020-07-04T14:20:45Z</time>
      </trkpt>
      <trkpt lat="43.31354" lon="-1.70319">
        <ele>439.9</ele>
        <time>2020-07-04T14:20:47Z</time>
      </trkpt>
      <trkpt lat="43.3136" lon="-1.70331">
        <ele>438.7</ele>
        <time>2020-07-04T14:20:49Z</time>
      </trkpt>
      <trkpt lat="43.31366" lon="-1.70344">
        <ele>437</ele>
        <time>2020-07-04T14:20:51Z</time>
      </trkpt>
      <trkpt lat="43.31372" lon="-1.70358">
        <ele>435.1</ele>
        <time>2020-07-04T14:20:53Z</time>
      </trkpt>
      <trkpt lat="43.31379" lon="-1.70372">
        <ele>432.9</ele>
        <time>2020-07-04T14:20:55Z</time>
      </trkpt>
      <trkpt lat="43.31384" lon="-1.70386">
        <ele>430.6</ele>
        <time>2020-07-04T14:20:57Z</time>
      </trkpt>
      <trkpt lat="43.3139" lon="-1.704">
        <ele>428</ele>
        <time>2020-07-04T14:20:59Z</time>
      </trkpt>
      <trkpt lat="43.31399" lon="-1.70414">
        <ele>425.4</ele>
        <time>2020-07-04T14:21:01Z</time>
      </trkpt>
      <trkpt lat="43.31408" lon="-1.70426">
        <ele>422.8</ele>
        <time>2020-07-04T14:21:03Z</time>
      </trkpt>
      <trkpt lat="43.31418" lon="-1.70439">
        <ele>419.9</ele>
        <time>2020-07-04T14:21:05Z</time>
      </trkpt>
      <trkpt lat="43.31426" lon="-1.70452">
        <ele>417</ele>
        <time>2020-07-04T14:21:07Z</time>
      </trkpt>
      <trkpt lat="43.31434" lon="-1.70463">
        <ele>414.4</ele>
        <time>2020-07-04T14:21:09Z</time>
      </trkpt>
      <trkpt lat="43.31442" lon="-1.70471">
        <ele>411.8</ele>
        <time>2020-07-04T14:21:11Z</time>
      </trkpt>
      <trkpt lat="43.31448" lon="-1.7048">
        <ele>403.9</ele>
        <time>2020-07-04T14:21:18Z</time>
      </trkpt>
      <trkpt lat="43.31453" lon="-1.70491">
        <ele>389</ele>
        <time>2020-07-04T14:22:06Z</time>
      </trkpt>
      <trkpt lat="43.31458" lon="-1.70502">
        <ele>388.4</ele>
        <time>2020-07-04T14:22:10Z</time>
      </trkpt>
      <trkpt lat="43.31465" lon="-1.70515">
        <ele>387.8</ele>
        <time>2020-07-04T14:22:13Z</time>
      </trkpt>
      <trkpt lat="43.31471" lon="-1.70526">
        <ele>387.2</ele>
        <time>2020-07-04T14:22:15Z</time>
      </trkpt>
      <trkpt lat="43.31479" lon="-1.70536">
        <ele>386.5</ele>
        <time>2020-07-04T14:22:17Z</time>
      </trkpt>
      <trkpt lat="43.31486" lon="-1.70548">
        <ele>385.4</ele>
        <time>2020-07-04T14:22:19Z</time>
      </trkpt>
      <trkpt lat="43.31492" lon="-1.70559">
        <ele>384.1</ele>
        <time>2020-07-04T14:22:21Z</time>
      </trkpt>
      <trkpt lat="43.31497" lon="-1.7057">
        <ele>382.7</ele>
        <time>2020-07-04T14:22:23Z</time>
      </trkpt>
      <trkpt lat="43.31504" lon="-1.70578">
        <ele>381.2</ele>
        <time>2020-07-04T14:22:25Z</time>
      </trkpt>
      <trkpt lat="43.31512" lon="-1.70585">
        <ele>379.6</ele>
        <time>2020-07-04T14:22:27Z</time>
      </trkpt>
      <trkpt lat="43.31522" lon="-1.70594">
        <ele>377.8</ele>
        <time>2020-07-04T14:22:29Z</time>
      </trkpt>
      <trkpt lat="43.31534" lon="-1.70602">
        <ele>376</ele>
        <time>2020-07-04T14:22:31Z</time>
      </trkpt>
      <trkpt lat="43.31549" lon="-1.7061">
        <ele>374.1</ele>
        <time>2020-07-04T14:22:33Z</time>
      </trkpt>
      <trkpt lat="43.31563" lon="-1.70619">
        <ele>372.1</ele>
        <time>2020-07-04T14:22:35Z</time>
      </trkpt>
      <trkpt lat="43.31576" lon="-1.70624">
        <ele>370.2</ele>
        <time>2020-07-04T14:22:37Z</time>
      </trkpt>
      <trkpt lat="43.31588" lon="-1.70628">
        <ele>368.3</ele>
        <time>2020-07-04T14:22:39Z</time>
      </trkpt>
      <trkpt lat="43.31599" lon="-1.70633">
        <ele>366.4</ele>
        <time>2020-07-04T14:22:41Z</time>
      </trkpt>
      <trkpt lat="43.3161" lon="-1.70643">
        <ele>364.7</ele>
        <time>2020-07-04T14:22:43Z</time>
      </trkpt>
      <trkpt lat="43.31622" lon="-1.70657">
        <ele>362.8</ele>
        <time>2020-07-04T14:22:45Z</time>
      </trkpt>
      <trkpt lat="43.31634" lon="-1.70672">
        <ele>361.1</ele>
        <time>2020-07-04T14:22:47Z</time>
      </trkpt>
      <trkpt lat="43.31645" lon="-1.70682">
        <ele>359.2</ele>
        <time>2020-07-04T14:22:49Z</time>
      </trkpt>
      <trkpt lat="43.31654" lon="-1.70686">
        <ele>353.3</ele>
        <time>2020-07-04T14:22:57Z</time>
      </trkpt>
      <trkpt lat="43.31664" lon="-1.70683">
        <ele>350.8</ele>
        <time>2020-07-04T14:23:02Z</time>
      </trkpt>
      <trkpt lat="43.31672" lon="-1.70676">
        <ele>349.3</ele>
        <time>2020-07-04T14:23:06Z</time>
      </trkpt>
      <trkpt lat="43.31679" lon="-1.70666">
        <ele>348.1</ele>
        <time>2020-07-04T14:23:10Z</time>
      </trkpt>
      <trkpt lat="43.31684" lon="-1.70656">
        <ele>347.3</ele>
        <time>2020-07-04T14:23:14Z</time>
      </trkpt>
      <trkpt lat="43.31689" lon="-1.70645">
        <ele>346.6</ele>
        <time>2020-07-04T14:23:19Z</time>
      </trkpt>
      <trkpt lat="43.31693" lon="-1.70633">
        <ele>346.3</ele>
        <time>2020-07-04T14:23:23Z</time>
      </trkpt>
      <trkpt lat="43.31697" lon="-1.70622">
        <ele>346.1</ele>
        <time>2020-07-04T14:23:26Z</time>
      </trkpt>
      <trkpt lat="43.31702" lon="-1.70608">
        <ele>345.8</ele>
        <time>2020-07-04T14:23:30Z</time>
      </trkpt>
      <trkpt lat="43.31707" lon="-1.70596">
        <ele>345.2</ele>
        <time>2020-07-04T14:23:35Z</time>
      </trkpt>
      <trkpt lat="43.31711" lon="-1.70584">
        <ele>343.8</ele>
        <time>2020-07-04T14:23:42Z</time>
      </trkpt>
      <trkpt lat="43.31717" lon="-1.70572">
        <ele>342.8</ele>
        <time>2020-07-04T14:23:47Z</time>
      </trkpt>
      <trkpt lat="43.31724" lon="-1.70562">
        <ele>341.7</ele>
        <time>2020-07-04T14:23:52Z</time>
      </trkpt>
      <trkpt lat="43.31735" lon="-1.70567">
        <ele>336</ele>
        <time>2020-07-04T14:26:52Z</time>
      </trkpt>
      <trkpt lat="43.31747" lon="-1.70574">
        <ele>335.9</ele>
        <time>2020-07-04T14:26:55Z</time>
      </trkpt>
      <trkpt lat="43.31755" lon="-1.7058">
        <ele>334.9</ele>
        <time>2020-07-04T14:27:00Z</time>
      </trkpt>
      <trkpt lat="43.31772" lon="-1.70588">
        <ele>329.2</ele>
        <time>2020-07-04T14:28:27Z</time>
      </trkpt>
      <trkpt lat="43.31782" lon="-1.70597">
        <ele>329.3</ele>
        <time>2020-07-04T14:28:44Z</time>
      </trkpt>
      <trkpt lat="43.3179" lon="-1.70609">
        <ele>329.2</ele>
        <time>2020-07-04T14:28:47Z</time>
      </trkpt>
      <trkpt lat="43.31799" lon="-1.70622">
        <ele>328.3</ele>
        <time>2020-07-04T14:28:50Z</time>
      </trkpt>
      <trkpt lat="43.31806" lon="-1.70633">
        <ele>327.4</ele>
        <time>2020-07-04T14:28:53Z</time>
      </trkpt>
      <trkpt lat="43.31812" lon="-1.70646">
        <ele>319.8</ele>
        <time>2020-07-04T14:29:37Z</time>
      </trkpt>
      <trkpt lat="43.31819" lon="-1.70656">
        <ele>319.3</ele>
        <time>2020-07-04T14:29:40Z</time>
      </trkpt>
      <trkpt lat="43.31829" lon="-1.70668">
        <ele>318.7</ele>
        <time>2020-07-04T14:29:43Z</time>
      </trkpt>
      <trkpt lat="43.31836" lon="-1.70679">
        <ele>317.9</ele>
        <time>2020-07-04T14:29:45Z</time>
      </trkpt>
      <trkpt lat="43.31843" lon="-1.7069">
        <ele>317.1</ele>
        <time>2020-07-04T14:29:47Z</time>
      </trkpt>
      <trkpt lat="43.3185" lon="-1.70701">
        <ele>316.1</ele>
        <time>2020-07-04T14:29:49Z</time>
      </trkpt>
      <trkpt lat="43.31857" lon="-1.70713">
        <ele>314.9</ele>
        <time>2020-07-04T14:29:51Z</time>
      </trkpt>
      <trkpt lat="43.31864" lon="-1.70728">
        <ele>313.5</ele>
        <time>2020-07-04T14:29:53Z</time>
      </trkpt>
      <trkpt lat="43.3187" lon="-1.70742">
        <ele>312.1</ele>
        <time>2020-07-04T14:29:55Z</time>
      </trkpt>
      <trkpt lat="43.31876" lon="-1.70757">
        <ele>310.3</ele>
        <time>2020-07-04T14:29:57Z</time>
      </trkpt>
      <trkpt lat="43.3188" lon="-1.70772">
        <ele>308.7</ele>
        <time>2020-07-04T14:29:59Z</time>
      </trkpt>
      <trkpt lat="43.31885" lon="-1.70787">
        <ele>307</ele>
        <time>2020-07-04T14:30:01Z</time>
      </trkpt>
      <trkpt lat="43.31889" lon="-1.70803">
        <ele>305.2</ele>
        <time>2020-07-04T14:30:03Z</time>
      </trkpt>
      <trkpt lat="43.31891" lon="-1.70816">
        <ele>303.2</ele>
        <time>2020-07-04T14:30:05Z</time>
      </trkpt>
      <trkpt lat="43.31892" lon="-1.70832">
        <ele>300.2</ele>
        <time>2020-07-04T14:30:08Z</time>
      </trkpt>
      <trkpt lat="43.31895" lon="-1.70844">
        <ele>294.7</ele>
        <time>2020-07-04T14:30:14Z</time>
      </trkpt>
      <trkpt lat="43.31896" lon="-1.70856">
        <ele>282.3</ele>
        <time>2020-07-04T14:30:43Z</time>
      </trkpt>
      <trkpt lat="43.31897" lon="-1.70871">
        <ele>280</ele>
        <time>2020-07-04T14:33:52Z</time>
      </trkpt>
      <trkpt lat="43.31896" lon="-1.70886">
        <ele>280.1</ele>
        <time>2020-07-04T14:33:55Z</time>
      </trkpt>
      <trkpt lat="43.3189" lon="-1.70898">
        <ele>279.8</ele>
        <time>2020-07-04T14:33:58Z</time>
      </trkpt>
      <trkpt lat="43.31884" lon="-1.70909">
        <ele>279.5</ele>
        <time>2020-07-04T14:34:01Z</time>
      </trkpt>
      <trkpt lat="43.31876" lon="-1.7092">
        <ele>279.1</ele>
        <time>2020-07-04T14:34:04Z</time>
      </trkpt>
      <trkpt lat="43.31868" lon="-1.7093">
        <ele>278.6</ele>
        <time>2020-07-04T14:34:09Z</time>
      </trkpt>
      <trkpt lat="43.31858" lon="-1.70938">
        <ele>278.2</ele>
        <time>2020-07-04T14:34:14Z</time>
      </trkpt>
      <trkpt lat="43.31847" lon="-1.70944">
        <ele>278</ele>
        <time>2020-07-04T14:34:17Z</time>
      </trkpt>
      <trkpt lat="43.31839" lon="-1.70952">
        <ele>277.9</ele>
        <time>2020-07-04T14:34:20Z</time>
      </trkpt>
      <trkpt lat="43.31833" lon="-1.70961">
        <ele>277.7</ele>
        <time>2020-07-04T14:34:23Z</time>
      </trkpt>
      <trkpt lat="43.31823" lon="-1.70966">
        <ele>278</ele>
        <time>2020-07-04T14:34:26Z</time>
      </trkpt>
      <trkpt lat="43.31812" lon="-1.70969">
        <ele>277.7</ele>
        <time>2020-07-04T14:34:29Z</time>
      </trkpt>
      <trkpt lat="43.31801" lon="-1.70972">
        <ele>277.4</ele>
        <time>2020-07-04T14:34:33Z</time>
      </trkpt>
      <trkpt lat="43.31791" lon="-1.70976">
        <ele>277.2</ele>
        <time>2020-07-04T14:34:37Z</time>
      </trkpt>
      <trkpt lat="43.3178" lon="-1.70977">
        <ele>277.1</ele>
        <time>2020-07-04T14:34:40Z</time>
      </trkpt>
      <trkpt lat="43.31767" lon="-1.7098">
        <ele>276.8</ele>
        <time>2020-07-04T14:34:43Z</time>
      </trkpt>
      <trkpt lat="43.31758" lon="-1.70985">
        <ele>276.3</ele>
        <time>2020-07-04T14:34:46Z</time>
      </trkpt>
      <trkpt lat="43.31753" lon="-1.70996">
        <ele>275.2</ele>
        <time>2020-07-04T14:34:52Z</time>
      </trkpt>
      <trkpt lat="43.31761" lon="-1.71002">
        <ele>274</ele>
        <time>2020-07-04T14:35:03Z</time>
      </trkpt>
      <trkpt lat="43.31771" lon="-1.71006">
        <ele>273.7</ele>
        <time>2020-07-04T14:35:11Z</time>
      </trkpt>
      <trkpt lat="43.31781" lon="-1.7101">
        <ele>273.8</ele>
        <time>2020-07-04T14:35:15Z</time>
      </trkpt>
      <trkpt lat="43.31792" lon="-1.71012">
        <ele>274.1</ele>
        <time>2020-07-04T14:35:19Z</time>
      </trkpt>
      <trkpt lat="43.31802" lon="-1.71013">
        <ele>274.1</ele>
        <time>2020-07-04T14:35:22Z</time>
      </trkpt>
      <trkpt lat="43.31811" lon="-1.71016">
        <ele>274.1</ele>
        <time>2020-07-04T14:35:25Z</time>
      </trkpt>
      <trkpt lat="43.31823" lon="-1.7102">
        <ele>274.1</ele>
        <time>2020-07-04T14:35:28Z</time>
      </trkpt>
      <trkpt lat="43.31833" lon="-1.71026">
        <ele>273.9</ele>
        <time>2020-07-04T14:35:31Z</time>
      </trkpt>
      <trkpt lat="43.31842" lon="-1.71035">
        <ele>273.6</ele>
        <time>2020-07-04T14:35:34Z</time>
      </trkpt>
      <trkpt lat="43.31845" lon="-1.71048">
        <ele>273.7</ele>
        <time>2020-07-04T14:35:37Z</time>
      </trkpt>
      <trkpt lat="43.31845" lon="-1.71062">
        <ele>273.7</ele>
        <time>2020-07-04T14:35:41Z</time>
      </trkpt>
      <trkpt lat="43.31847" lon="-1.71074">
        <ele>274</ele>
        <time>2020-07-04T14:35:52Z</time>
      </trkpt>
      <trkpt lat="43.31848" lon="-1.71087">
        <ele>275</ele>
        <time>2020-07-04T14:36:24Z</time>
      </trkpt>
      <trkpt lat="43.31842" lon="-1.71098">
        <ele>275.4</ele>
        <time>2020-07-04T14:36:30Z</time>
      </trkpt>
      <trkpt lat="43.31836" lon="-1.71109">
        <ele>276.3</ele>
        <time>2020-07-04T14:36:36Z</time>
      </trkpt>
      <trkpt lat="43.3183" lon="-1.71119">
        <ele>277.7</ele>
        <time>2020-07-04T14:36:42Z</time>
      </trkpt>
      <trkpt lat="43.31824" lon="-1.71131">
        <ele>280</ele>
        <time>2020-07-04T14:36:49Z</time>
      </trkpt>
      <trkpt lat="43.31819" lon="-1.71143">
        <ele>282</ele>
        <time>2020-07-04T14:36:55Z</time>
      </trkpt>
      <trkpt lat="43.31814" lon="-1.71154">
        <ele>283.9</ele>
        <time>2020-07-04T14:37:00Z</time>
      </trkpt>
      <trkpt lat="43.31807" lon="-1.71164">
        <ele>285.8</ele>
        <time>2020-07-04T14:37:06Z</time>
      </trkpt>
      <trkpt lat="43.31799" lon="-1.71172">
        <ele>287.4</ele>
        <time>2020-07-04T14:37:11Z</time>
      </trkpt>
      <trkpt lat="43.31789" lon="-1.71176">
        <ele>289.3</ele>
        <time>2020-07-04T14:37:17Z</time>
      </trkpt>
      <trkpt lat="43.31779" lon="-1.7118">
        <ele>291</ele>
        <time>2020-07-04T14:37:23Z</time>
      </trkpt>
      <trkpt lat="43.3177" lon="-1.71178">
        <ele>292.4</ele>
        <time>2020-07-04T14:37:28Z</time>
      </trkpt>
      <trkpt lat="43.31761" lon="-1.71175">
        <ele>293.4</ele>
        <time>2020-07-04T14:37:33Z</time>
      </trkpt>
      <trkpt lat="43.31752" lon="-1.71169">
        <ele>294.7</ele>
        <time>2020-07-04T14:37:38Z</time>
      </trkpt>
      <trkpt lat="43.31743" lon="-1.71163">
        <ele>296</ele>
        <time>2020-07-04T14:37:43Z</time>
      </trkpt>
      <trkpt lat="43.31735" lon="-1.71157">
        <ele>297.3</ele>
        <time>2020-07-04T14:37:48Z</time>
      </trkpt>
      <trkpt lat="43.31726" lon="-1.71154">
        <ele>298.6</ele>
        <time>2020-07-04T14:37:53Z</time>
      </trkpt>
      <trkpt lat="43.31715" lon="-1.71153">
        <ele>299.7</ele>
        <time>2020-07-04T14:37:58Z</time>
      </trkpt>
      <trkpt lat="43.31704" lon="-1.71155">
        <ele>300.6</ele>
        <time>2020-07-04T14:38:03Z</time>
      </trkpt>
      <trkpt lat="43.31694" lon="-1.7116">
        <ele>301.6</ele>
        <time>2020-07-04T14:38:08Z</time>
      </trkpt>
      <trkpt lat="43.31686" lon="-1.71167">
        <ele>302.4</ele>
        <time>2020-07-04T14:38:12Z</time>
      </trkpt>
      <trkpt lat="43.31678" lon="-1.71174">
        <ele>303.1</ele>
        <time>2020-07-04T14:38:16Z</time>
      </trkpt>
      <trkpt lat="43.31672" lon="-1.71183">
        <ele>303.8</ele>
        <time>2020-07-04T14:38:20Z</time>
      </trkpt>
      <trkpt lat="43.31664" lon="-1.71192">
        <ele>304.3</ele>
        <time>2020-07-04T14:38:24Z</time>
      </trkpt>
      <trkpt lat="43.31657" lon="-1.71201">
        <ele>304.9</ele>
        <time>2020-07-04T14:38:28Z</time>
      </trkpt>
      <trkpt lat="43.31652" lon="-1.71212">
        <ele>305.2</ele>
        <time>2020-07-04T14:38:32Z</time>
      </trkpt>
      <trkpt lat="43.31646" lon="-1.71225">
        <ele>305.6</ele>
        <time>2020-07-04T14:38:36Z</time>
      </trkpt>
      <trkpt lat="43.31638" lon="-1.71237">
        <ele>306.1</ele>
        <time>2020-07-04T14:38:40Z</time>
      </trkpt>
      <trkpt lat="43.31629" lon="-1.71245">
        <ele>306.6</ele>
        <time>2020-07-04T14:38:44Z</time>
      </trkpt>
      <trkpt lat="43.31626" lon="-1.71258">
        <ele>307.1</ele>
        <time>2020-07-04T14:38:49Z</time>
      </trkpt>
      <trkpt lat="43.31626" lon="-1.71272">
        <ele>307.7</ele>
        <time>2020-07-04T14:38:54Z</time>
      </trkpt>
      <trkpt lat="43.31621" lon="-1.71285">
        <ele>308.5</ele>
        <time>2020-07-04T14:38:58Z</time>
      </trkpt>
      <trkpt lat="43.31614" lon="-1.71295">
        <ele>309.2</ele>
        <time>2020-07-04T14:39:02Z</time>
      </trkpt>
      <trkpt lat="43.31607" lon="-1.71305">
        <ele>310</ele>
        <time>2020-07-04T14:39:06Z</time>
      </trkpt>
      <trkpt lat="43.31601" lon="-1.71317">
        <ele>310.9</ele>
        <time>2020-07-04T14:39:11Z</time>
      </trkpt>
      <trkpt lat="43.31605" lon="-1.71331">
        <ele>311.9</ele>
        <time>2020-07-04T14:39:16Z</time>
      </trkpt>
      <trkpt lat="43.31614" lon="-1.7134">
        <ele>312.6</ele>
        <time>2020-07-04T14:39:20Z</time>
      </trkpt>
      <trkpt lat="43.31621" lon="-1.7135">
        <ele>313.2</ele>
        <time>2020-07-04T14:39:24Z</time>
      </trkpt>
      <trkpt lat="43.31632" lon="-1.71355">
        <ele>313.6</ele>
        <time>2020-07-04T14:39:28Z</time>
      </trkpt>
      <trkpt lat="43.3164" lon="-1.71358">
        <ele>313.8</ele>
        <time>2020-07-04T14:39:31Z</time>
      </trkpt>
      <trkpt lat="43.31648" lon="-1.71364">
        <ele>314</ele>
        <time>2020-07-04T14:39:34Z</time>
      </trkpt>
      <trkpt lat="43.31654" lon="-1.71374">
        <ele>314.2</ele>
        <time>2020-07-04T14:39:37Z</time>
      </trkpt>
      <trkpt lat="43.31657" lon="-1.71389">
        <ele>314.5</ele>
        <time>2020-07-04T14:39:41Z</time>
      </trkpt>
      <trkpt lat="43.31657" lon="-1.71403">
        <ele>314.7</ele>
        <time>2020-07-04T14:39:45Z</time>
      </trkpt>
      <trkpt lat="43.31655" lon="-1.71416">
        <ele>315</ele>
        <time>2020-07-04T14:39:49Z</time>
      </trkpt>
      <trkpt lat="43.31657" lon="-1.71431">
        <ele>315.3</ele>
        <time>2020-07-04T14:39:53Z</time>
      </trkpt>
      <trkpt lat="43.31663" lon="-1.7144">
        <ele>315.7</ele>
        <time>2020-07-04T14:39:57Z</time>
      </trkpt>
      <trkpt lat="43.31669" lon="-1.7145">
        <ele>316.4</ele>
        <time>2020-07-04T14:40:03Z</time>
      </trkpt>
      <trkpt lat="43.31676" lon="-1.71458">
        <ele>317.1</ele>
        <time>2020-07-04T14:40:21Z</time>
      </trkpt>
      <trkpt lat="43.31681" lon="-1.7147">
        <ele>317.3</ele>
        <time>2020-07-04T14:40:25Z</time>
      </trkpt>
      <trkpt lat="43.31686" lon="-1.71481">
        <ele>320</ele>
        <time>2020-07-04T14:43:00Z</time>
      </trkpt>
      <trkpt lat="43.31686" lon="-1.71496">
        <ele>320.3</ele>
        <time>2020-07-04T14:44:03Z</time>
      </trkpt>
      <trkpt lat="43.31687" lon="-1.71509">
        <ele>320.3</ele>
        <time>2020-07-04T14:44:07Z</time>
      </trkpt>
      <trkpt lat="43.31689" lon="-1.71523">
        <ele>320.3</ele>
        <time>2020-07-04T14:44:10Z</time>
      </trkpt>
      <trkpt lat="43.31691" lon="-1.71537">
        <ele>320.3</ele>
        <time>2020-07-04T14:44:13Z</time>
      </trkpt>
      <trkpt lat="43.31694" lon="-1.7155">
        <ele>320.5</ele>
        <time>2020-07-04T14:44:16Z</time>
      </trkpt>
      <trkpt lat="43.31696" lon="-1.71562">
        <ele>320.8</ele>
        <time>2020-07-04T14:44:19Z</time>
      </trkpt>
      <trkpt lat="43.31699" lon="-1.71574">
        <ele>321.1</ele>
        <time>2020-07-04T14:44:22Z</time>
      </trkpt>
      <trkpt lat="43.31702" lon="-1.71586">
        <ele>321.4</ele>
        <time>2020-07-04T14:44:25Z</time>
      </trkpt>
      <trkpt lat="43.31706" lon="-1.716">
        <ele>321.6</ele>
        <time>2020-07-04T14:44:28Z</time>
      </trkpt>
      <trkpt lat="43.31709" lon="-1.71613">
        <ele>321.8</ele>
        <time>2020-07-04T14:44:31Z</time>
      </trkpt>
      <trkpt lat="43.31713" lon="-1.71626">
        <ele>321.9</ele>
        <time>2020-07-04T14:44:34Z</time>
      </trkpt>
      <trkpt lat="43.31715" lon="-1.7164">
        <ele>322</ele>
        <time>2020-07-04T14:44:37Z</time>
      </trkpt>
      <trkpt lat="43.31716" lon="-1.71653">
        <ele>322.3</ele>
        <time>2020-07-04T14:44:42Z</time>
      </trkpt>
      <trkpt lat="43.31722" lon="-1.71663">
        <ele>323</ele>
        <time>2020-07-04T14:44:50Z</time>
      </trkpt>
      <trkpt lat="43.3173" lon="-1.71671">
        <ele>323.2</ele>
        <time>2020-07-04T14:44:56Z</time>
      </trkpt>
      <trkpt lat="43.31738" lon="-1.71678">
        <ele>323.5</ele>
        <time>2020-07-04T14:45:01Z</time>
      </trkpt>
      <trkpt lat="43.31746" lon="-1.71684">
        <ele>324.1</ele>
        <time>2020-07-04T14:45:07Z</time>
      </trkpt>
      <trkpt lat="43.31755" lon="-1.71691">
        <ele>324.9</ele>
        <time>2020-07-04T14:45:13Z</time>
      </trkpt>
      <trkpt lat="43.31764" lon="-1.71692">
        <ele>327.1</ele>
        <time>2020-07-04T14:50:06Z</time>
      </trkpt>
      <trkpt lat="43.31773" lon="-1.71694">
        <ele>327.3</ele>
        <time>2020-07-04T14:50:10Z</time>
      </trkpt>
      <trkpt lat="43.31783" lon="-1.71696">
        <ele>328</ele>
        <time>2020-07-04T14:50:15Z</time>
      </trkpt>
      <trkpt lat="43.31793" lon="-1.717">
        <ele>328.7</ele>
        <time>2020-07-04T14:50:20Z</time>
      </trkpt>
      <trkpt lat="43.31802" lon="-1.71706">
        <ele>329.3</ele>
        <time>2020-07-04T14:50:24Z</time>
      </trkpt>
      <trkpt lat="43.31811" lon="-1.71711">
        <ele>330.5</ele>
        <time>2020-07-04T14:50:29Z</time>
      </trkpt>
      <trkpt lat="43.31819" lon="-1.71719">
        <ele>331.8</ele>
        <time>2020-07-04T14:50:35Z</time>
      </trkpt>
      <trkpt lat="43.31822" lon="-1.71732">
        <ele>333.7</ele>
        <time>2020-07-04T14:50:41Z</time>
      </trkpt>
      <trkpt lat="43.31828" lon="-1.71741">
        <ele>335.8</ele>
        <time>2020-07-04T14:50:47Z</time>
      </trkpt>
      <trkpt lat="43.31831" lon="-1.71755">
        <ele>337.6</ele>
        <time>2020-07-04T14:50:53Z</time>
      </trkpt>
      <trkpt lat="43.31836" lon="-1.71768">
        <ele>343.9</ele>
        <time>2020-07-04T14:52:02Z</time>
      </trkpt>
      <trkpt lat="43.31839" lon="-1.71779">
        <ele>344.2</ele>
        <time>2020-07-04T14:52:07Z</time>
      </trkpt>
      <trkpt lat="43.31843" lon="-1.71791">
        <ele>344.7</ele>
        <time>2020-07-04T14:52:12Z</time>
      </trkpt>
      <trkpt lat="43.31848" lon="-1.71805">
        <ele>345.5</ele>
        <time>2020-07-04T14:52:17Z</time>
      </trkpt>
      <trkpt lat="43.31853" lon="-1.71815">
        <ele>346.3</ele>
        <time>2020-07-04T14:52:21Z</time>
      </trkpt>
      <trkpt lat="43.31859" lon="-1.71826">
        <ele>347.1</ele>
        <time>2020-07-04T14:52:25Z</time>
      </trkpt>
      <trkpt lat="43.31864" lon="-1.71836">
        <ele>347.8</ele>
        <time>2020-07-04T14:52:29Z</time>
      </trkpt>
      <trkpt lat="43.31872" lon="-1.71846">
        <ele>348.9</ele>
        <time>2020-07-04T14:52:34Z</time>
      </trkpt>
      <trkpt lat="43.31879" lon="-1.71855">
        <ele>349.7</ele>
        <time>2020-07-04T14:52:38Z</time>
      </trkpt>
      <trkpt lat="43.31888" lon="-1.71862">
        <ele>351.3</ele>
        <time>2020-07-04T14:52:43Z</time>
      </trkpt>
      <trkpt lat="43.31898" lon="-1.71866">
        <ele>353.1</ele>
        <time>2020-07-04T14:52:48Z</time>
      </trkpt>
      <trkpt lat="43.31907" lon="-1.71867">
        <ele>354.7</ele>
        <time>2020-07-04T14:52:53Z</time>
      </trkpt>
      <trkpt lat="43.31917" lon="-1.71868">
        <ele>356.7</ele>
        <time>2020-07-04T14:52:59Z</time>
      </trkpt>
      <trkpt lat="43.31926" lon="-1.71871">
        <ele>358.3</ele>
        <time>2020-07-04T14:53:04Z</time>
      </trkpt>
      <trkpt lat="43.31934" lon="-1.71879">
        <ele>360</ele>
        <time>2020-07-04T14:53:09Z</time>
      </trkpt>
      <trkpt lat="43.31943" lon="-1.71887">
        <ele>361.5</ele>
        <time>2020-07-04T14:53:14Z</time>
      </trkpt>
      <trkpt lat="43.3195" lon="-1.71896">
        <ele>362.8</ele>
        <time>2020-07-04T14:53:19Z</time>
      </trkpt>
      <trkpt lat="43.31956" lon="-1.71906">
        <ele>363.8</ele>
        <time>2020-07-04T14:53:24Z</time>
      </trkpt>
      <trkpt lat="43.3196" lon="-1.71918">
        <ele>364.7</ele>
        <time>2020-07-04T14:53:29Z</time>
      </trkpt>
      <trkpt lat="43.31965" lon="-1.7193">
        <ele>365.4</ele>
        <time>2020-07-04T14:53:34Z</time>
      </trkpt>
      <trkpt lat="43.31969" lon="-1.71942">
        <ele>366.3</ele>
        <time>2020-07-04T14:53:39Z</time>
      </trkpt>
      <trkpt lat="43.31973" lon="-1.71955">
        <ele>367.1</ele>
        <time>2020-07-04T14:53:44Z</time>
      </trkpt>
      <trkpt lat="43.31977" lon="-1.71969">
        <ele>367.7</ele>
        <time>2020-07-04T14:53:48Z</time>
      </trkpt>
      <trkpt lat="43.3198" lon="-1.71981">
        <ele>368.2</ele>
        <time>2020-07-04T14:53:52Z</time>
      </trkpt>
      <trkpt lat="43.31982" lon="-1.71995">
        <ele>368.6</ele>
        <time>2020-07-04T14:53:56Z</time>
      </trkpt>
      <trkpt lat="43.31984" lon="-1.72008">
        <ele>368.9</ele>
        <time>2020-07-04T14:54:00Z</time>
      </trkpt>
      <trkpt lat="43.31986" lon="-1.72022">
        <ele>369.2</ele>
        <time>2020-07-04T14:54:04Z</time>
      </trkpt>
      <trkpt lat="43.31989" lon="-1.72036">
        <ele>369.7</ele>
        <time>2020-07-04T14:54:08Z</time>
      </trkpt>
      <trkpt lat="43.31991" lon="-1.7205">
        <ele>370</ele>
        <time>2020-07-04T14:54:12Z</time>
      </trkpt>
      <trkpt lat="43.31993" lon="-1.72065">
        <ele>370.4</ele>
        <time>2020-07-04T14:54:16Z</time>
      </trkpt>
      <trkpt lat="43.31993" lon="-1.72079">
        <ele>370.7</ele>
        <time>2020-07-04T14:54:20Z</time>
      </trkpt>
      <trkpt lat="43.31998" lon="-1.72093">
        <ele>370.9</ele>
        <time>2020-07-04T14:54:24Z</time>
      </trkpt>
      <trkpt lat="43.32002" lon="-1.72104">
        <ele>372.5</ele>
        <time>2020-07-04T14:54:54Z</time>
      </trkpt>
      <trkpt lat="43.32008" lon="-1.72116">
        <ele>372.5</ele>
        <time>2020-07-04T14:54:58Z</time>
      </trkpt>
      <trkpt lat="43.32012" lon="-1.72127">
        <ele>372.7</ele>
        <time>2020-07-04T14:55:01Z</time>
      </trkpt>
      <trkpt lat="43.32017" lon="-1.72139">
        <ele>373.2</ele>
        <time>2020-07-04T14:55:04Z</time>
      </trkpt>
      <trkpt lat="43.32021" lon="-1.72151">
        <ele>373.6</ele>
        <time>2020-07-04T14:55:07Z</time>
      </trkpt>
      <trkpt lat="43.32027" lon="-1.72164">
        <ele>374.1</ele>
        <time>2020-07-04T14:55:11Z</time>
      </trkpt>
      <trkpt lat="43.32031" lon="-1.72176">
        <ele>374.7</ele>
        <time>2020-07-04T14:55:16Z</time>
      </trkpt>
      <trkpt lat="43.32037" lon="-1.72187">
        <ele>376.6</ele>
        <time>2020-07-04T14:58:41Z</time>
      </trkpt>
      <trkpt lat="43.32044" lon="-1.72195">
        <ele>376.7</ele>
        <time>2020-07-04T14:58:45Z</time>
      </trkpt>
      <trkpt lat="43.32051" lon="-1.72204">
        <ele>376.9</ele>
        <time>2020-07-04T14:58:48Z</time>
      </trkpt>
      <trkpt lat="43.32058" lon="-1.72212">
        <ele>377.1</ele>
        <time>2020-07-04T14:58:51Z</time>
      </trkpt>
      <trkpt lat="43.32066" lon="-1.72221">
        <ele>377.7</ele>
        <time>2020-07-04T14:58:55Z</time>
      </trkpt>
      <trkpt lat="43.32077" lon="-1.72225">
        <ele>378.2</ele>
        <time>2020-07-04T14:58:59Z</time>
      </trkpt>
      <trkpt lat="43.32087" lon="-1.72229">
        <ele>378.7</ele>
        <time>2020-07-04T14:59:03Z</time>
      </trkpt>
      <trkpt lat="43.32096" lon="-1.72232">
        <ele>379.6</ele>
        <time>2020-07-04T14:59:09Z</time>
      </trkpt>
      <trkpt lat="43.32105" lon="-1.72229">
        <ele>382.4</ele>
        <time>2020-07-04T14:59:36Z</time>
      </trkpt>
      <trkpt lat="43.32115" lon="-1.72228">
        <ele>383</ele>
        <time>2020-07-04T14:59:41Z</time>
      </trkpt>
      <trkpt lat="43.32124" lon="-1.72226">
        <ele>384.3</ele>
        <time>2020-07-04T14:59:46Z</time>
      </trkpt>
      <trkpt lat="43.32135" lon="-1.72224">
        <ele>385.5</ele>
        <time>2020-07-04T14:59:52Z</time>
      </trkpt>
      <trkpt lat="43.32144" lon="-1.72219">
        <ele>387.2</ele>
        <time>2020-07-04T14:59:58Z</time>
      </trkpt>
      <trkpt lat="43.32153" lon="-1.72214">
        <ele>389</ele>
        <time>2020-07-04T15:00:04Z</time>
      </trkpt>
      <trkpt lat="43.32161" lon="-1.72208">
        <ele>390.9</ele>
        <time>2020-07-04T15:00:10Z</time>
      </trkpt>
      <trkpt lat="43.3217" lon="-1.72203">
        <ele>394.4</ele>
        <time>2020-07-04T15:00:21Z</time>
      </trkpt>
      <trkpt lat="43.32178" lon="-1.72197">
        <ele>396.6</ele>
        <time>2020-07-04T15:00:31Z</time>
      </trkpt>
      <trkpt lat="43.32187" lon="-1.7219">
        <ele>399.4</ele>
        <time>2020-07-04T15:00:41Z</time>
      </trkpt>
      <trkpt lat="43.32195" lon="-1.72184">
        <ele>402.4</ele>
        <time>2020-07-04T15:00:52Z</time>
      </trkpt>
      <trkpt lat="43.32203" lon="-1.72179">
        <ele>405.4</ele>
        <time>2020-07-04T15:01:06Z</time>
      </trkpt>
      <trkpt lat="43.32212" lon="-1.72174">
        <ele>408.1</ele>
        <time>2020-07-04T15:01:18Z</time>
      </trkpt>
      <trkpt lat="43.3222" lon="-1.72168">
        <ele>410.9</ele>
        <time>2020-07-04T15:01:29Z</time>
      </trkpt>
      <trkpt lat="43.32228" lon="-1.72161">
        <ele>413.3</ele>
        <time>2020-07-04T15:01:39Z</time>
      </trkpt>
      <trkpt lat="43.32236" lon="-1.72154">
        <ele>415.6</ele>
        <time>2020-07-04T15:01:48Z</time>
      </trkpt>
      <trkpt lat="43.32244" lon="-1.72147">
        <ele>417.9</ele>
        <time>2020-07-04T15:01:58Z</time>
      </trkpt>
      <trkpt lat="43.32252" lon="-1.7214">
        <ele>420.4</ele>
        <time>2020-07-04T15:02:08Z</time>
      </trkpt>
      <trkpt lat="43.3226" lon="-1.72133">
        <ele>422.9</ele>
        <time>2020-07-04T15:02:19Z</time>
      </trkpt>
      <trkpt lat="43.32267" lon="-1.72125">
        <ele>425</ele>
        <time>2020-07-04T15:02:29Z</time>
      </trkpt>
      <trkpt lat="43.32274" lon="-1.72116">
        <ele>427.1</ele>
        <time>2020-07-04T15:02:38Z</time>
      </trkpt>
      <trkpt lat="43.32281" lon="-1.72108">
        <ele>429.2</ele>
        <time>2020-07-04T15:02:48Z</time>
      </trkpt>
      <trkpt lat="43.32289" lon="-1.721">
        <ele>432.4</ele>
        <time>2020-07-04T15:02:59Z</time>
      </trkpt>
      <trkpt lat="43.32296" lon="-1.72092">
        <ele>435.3</ele>
        <time>2020-07-04T15:03:10Z</time>
      </trkpt>
      <trkpt lat="43.32304" lon="-1.72085">
        <ele>437.5</ele>
        <time>2020-07-04T15:03:20Z</time>
      </trkpt>
      <trkpt lat="43.32313" lon="-1.72078">
        <ele>440</ele>
        <time>2020-07-04T15:03:31Z</time>
      </trkpt>
      <trkpt lat="43.3232" lon="-1.72071">
        <ele>442.5</ele>
        <time>2020-07-04T15:03:41Z</time>
      </trkpt>
      <trkpt lat="43.32328" lon="-1.72063">
        <ele>444.6</ele>
        <time>2020-07-04T15:03:51Z</time>
      </trkpt>
      <trkpt lat="43.32335" lon="-1.72056">
        <ele>446.5</ele>
        <time>2020-07-04T15:04:00Z</time>
      </trkpt>
      <trkpt lat="43.32343" lon="-1.72047">
        <ele>448.3</ele>
        <time>2020-07-04T15:04:10Z</time>
      </trkpt>
      <trkpt lat="43.3235" lon="-1.72037">
        <ele>450.3</ele>
        <time>2020-07-04T15:04:19Z</time>
      </trkpt>
      <trkpt lat="43.32357" lon="-1.72029">
        <ele>451.9</ele>
        <time>2020-07-04T15:04:28Z</time>
      </trkpt>
      <trkpt lat="43.32366" lon="-1.72029">
        <ele>453.6</ele>
        <time>2020-07-04T15:04:40Z</time>
      </trkpt>
      <trkpt lat="43.32375" lon="-1.72035">
        <ele>455.2</ele>
        <time>2020-07-04T15:04:51Z</time>
      </trkpt>
      <trkpt lat="43.32384" lon="-1.72033">
        <ele>460.3</ele>
        <time>2020-07-04T15:07:26Z</time>
      </trkpt>
      <trkpt lat="43.32394" lon="-1.72036">
        <ele>460.9</ele>
        <time>2020-07-04T15:07:36Z</time>
      </trkpt>
      <trkpt lat="43.32401" lon="-1.72044">
        <ele>463.1</ele>
        <time>2020-07-04T15:08:05Z</time>
      </trkpt>
      <trkpt lat="43.32407" lon="-1.72054">
        <ele>463.4</ele>
        <time>2020-07-04T15:08:10Z</time>
      </trkpt>
      <trkpt lat="43.32412" lon="-1.72065">
        <ele>464</ele>
        <time>2020-07-04T15:08:15Z</time>
      </trkpt>
      <trkpt lat="43.32418" lon="-1.72076">
        <ele>464.8</ele>
        <time>2020-07-04T15:08:20Z</time>
      </trkpt>
      <trkpt lat="43.32425" lon="-1.72086">
        <ele>466.1</ele>
        <time>2020-07-04T15:08:25Z</time>
      </trkpt>
      <trkpt lat="43.32431" lon="-1.72095">
        <ele>467.3</ele>
        <time>2020-07-04T15:08:30Z</time>
      </trkpt>
      <trkpt lat="43.32438" lon="-1.72104">
        <ele>468.5</ele>
        <time>2020-07-04T15:08:35Z</time>
      </trkpt>
      <trkpt lat="43.32445" lon="-1.72112">
        <ele>469.8</ele>
        <time>2020-07-04T15:08:40Z</time>
      </trkpt>
      <trkpt lat="43.32453" lon="-1.72121">
        <ele>471.1</ele>
        <time>2020-07-04T15:08:45Z</time>
      </trkpt>
      <trkpt lat="43.32462" lon="-1.72129">
        <ele>472.3</ele>
        <time>2020-07-04T15:08:50Z</time>
      </trkpt>
      <trkpt lat="43.32471" lon="-1.72136">
        <ele>473.3</ele>
        <time>2020-07-04T15:08:56Z</time>
      </trkpt>
      <trkpt lat="43.32479" lon="-1.72141">
        <ele>474.6</ele>
        <time>2020-07-04T15:09:02Z</time>
      </trkpt>
      <trkpt lat="43.3249" lon="-1.72144">
        <ele>475.8</ele>
        <time>2020-07-04T15:09:08Z</time>
      </trkpt>
      <trkpt lat="43.32499" lon="-1.72146">
        <ele>477.4</ele>
        <time>2020-07-04T15:09:13Z</time>
      </trkpt>
      <trkpt lat="43.32509" lon="-1.72152">
        <ele>479.1</ele>
        <time>2020-07-04T15:09:19Z</time>
      </trkpt>
      <trkpt lat="43.32518" lon="-1.72154">
        <ele>480.3</ele>
        <time>2020-07-04T15:09:24Z</time>
      </trkpt>
      <trkpt lat="43.32528" lon="-1.72154">
        <ele>481.7</ele>
        <time>2020-07-04T15:09:29Z</time>
      </trkpt>
      <trkpt lat="43.32538" lon="-1.72155">
        <ele>483.2</ele>
        <time>2020-07-04T15:09:34Z</time>
      </trkpt>
      <trkpt lat="43.32548" lon="-1.72155">
        <ele>484.4</ele>
        <time>2020-07-04T15:09:39Z</time>
      </trkpt>
      <trkpt lat="43.32557" lon="-1.72152">
        <ele>488.4</ele>
        <time>2020-07-04T15:15:05Z</time>
      </trkpt>
      <trkpt lat="43.32566" lon="-1.72155">
        <ele>488.7</ele>
        <time>2020-07-04T15:15:13Z</time>
      </trkpt>
      <trkpt lat="43.32575" lon="-1.72159">
        <ele>488.7</ele>
        <time>2020-07-04T15:15:35Z</time>
      </trkpt>
      <trkpt lat="43.32584" lon="-1.72153">
        <ele>488.1</ele>
        <time>2020-07-04T15:31:33Z</time>
      </trkpt>
      <trkpt lat="43.32595" lon="-1.72156">
        <ele>488</ele>
        <time>2020-07-04T15:31:39Z</time>
      </trkpt>
      <trkpt lat="43.32607" lon="-1.7216">
        <ele>488</ele>
        <time>2020-07-04T15:31:43Z</time>
      </trkpt>
      <trkpt lat="43.32617" lon="-1.72165">
        <ele>488</ele>
        <time>2020-07-04T15:31:46Z</time>
      </trkpt>
      <trkpt lat="43.32629" lon="-1.7217">
        <ele>487.7</ele>
        <time>2020-07-04T15:31:49Z</time>
      </trkpt>
      <trkpt lat="43.32638" lon="-1.72174">
        <ele>487.5</ele>
        <time>2020-07-04T15:31:51Z</time>
      </trkpt>
      <trkpt lat="43.3265" lon="-1.7218">
        <ele>487.1</ele>
        <time>2020-07-04T15:31:54Z</time>
      </trkpt>
      <trkpt lat="43.32662" lon="-1.72182">
        <ele>486.6</ele>
        <time>2020-07-04T15:31:57Z</time>
      </trkpt>
      <trkpt lat="43.32672" lon="-1.72185">
        <ele>482.4</ele>
        <time>2020-07-04T15:32:13Z</time>
      </trkpt>
      <trkpt lat="43.32682" lon="-1.72188">
        <ele>478.9</ele>
        <time>2020-07-04T15:32:58Z</time>
      </trkpt>
      <trkpt lat="43.32691" lon="-1.72191">
        <ele>478.8</ele>
        <time>2020-07-04T15:33:01Z</time>
      </trkpt>
      <trkpt lat="43.32703" lon="-1.72196">
        <ele>478.7</ele>
        <time>2020-07-04T15:33:04Z</time>
      </trkpt>
      <trkpt lat="43.32715" lon="-1.72202">
        <ele>478</ele>
        <time>2020-07-04T15:33:07Z</time>
      </trkpt>
      <trkpt lat="43.32724" lon="-1.72204">
        <ele>477.2</ele>
        <time>2020-07-04T15:33:10Z</time>
      </trkpt>
      <trkpt lat="43.32733" lon="-1.72211">
        <ele>475.4</ele>
        <time>2020-07-04T15:33:14Z</time>
      </trkpt>
      <trkpt lat="43.32742" lon="-1.72217">
        <ele>465.9</ele>
        <time>2020-07-04T15:35:04Z</time>
      </trkpt>
      <trkpt lat="43.3275" lon="-1.72224">
        <ele>465.8</ele>
        <time>2020-07-04T15:35:08Z</time>
      </trkpt>
      <trkpt lat="43.3276" lon="-1.72234">
        <ele>465.1</ele>
        <time>2020-07-04T15:35:12Z</time>
      </trkpt>
      <trkpt lat="43.32768" lon="-1.72239">
        <ele>464.2</ele>
        <time>2020-07-04T15:35:15Z</time>
      </trkpt>
      <trkpt lat="43.32777" lon="-1.72247">
        <ele>462.9</ele>
        <time>2020-07-04T15:35:18Z</time>
      </trkpt>
      <trkpt lat="43.32786" lon="-1.72256">
        <ele>461.4</ele>
        <time>2020-07-04T15:35:21Z</time>
      </trkpt>
      <trkpt lat="43.32796" lon="-1.72263">
        <ele>459.9</ele>
        <time>2020-07-04T15:35:24Z</time>
      </trkpt>
      <trkpt lat="43.32803" lon="-1.72273">
        <ele>458.1</ele>
        <time>2020-07-04T15:35:27Z</time>
      </trkpt>
      <trkpt lat="43.32808" lon="-1.72284">
        <ele>456.9</ele>
        <time>2020-07-04T15:35:29Z</time>
      </trkpt>
      <trkpt lat="43.32812" lon="-1.72296">
        <ele>455.4</ele>
        <time>2020-07-04T15:35:31Z</time>
      </trkpt>
      <trkpt lat="43.32816" lon="-1.7231">
        <ele>453.1</ele>
        <time>2020-07-04T15:35:34Z</time>
      </trkpt>
      <trkpt lat="43.32819" lon="-1.72326">
        <ele>438.3</ele>
        <time>2020-07-04T15:36:18Z</time>
      </trkpt>
      <trkpt lat="43.32827" lon="-1.72334">
        <ele>438.1</ele>
        <time>2020-07-04T15:36:20Z</time>
      </trkpt>
      <trkpt lat="43.32836" lon="-1.72339">
        <ele>437.6</ele>
        <time>2020-07-04T15:36:22Z</time>
      </trkpt>
      <trkpt lat="43.32845" lon="-1.72347">
        <ele>436.8</ele>
        <time>2020-07-04T15:36:24Z</time>
      </trkpt>
      <trkpt lat="43.32853" lon="-1.72356">
        <ele>436.1</ele>
        <time>2020-07-04T15:36:26Z</time>
      </trkpt>
      <trkpt lat="43.32861" lon="-1.72368">
        <ele>434.3</ele>
        <time>2020-07-04T15:36:29Z</time>
      </trkpt>
      <trkpt lat="43.32866" lon="-1.7238">
        <ele>424.9</ele>
        <time>2020-07-04T15:37:08Z</time>
      </trkpt>
      <trkpt lat="43.32872" lon="-1.7239">
        <ele>424.7</ele>
        <time>2020-07-04T15:37:11Z</time>
      </trkpt>
      <trkpt lat="43.32879" lon="-1.72406">
        <ele>424.3</ele>
        <time>2020-07-04T15:37:14Z</time>
      </trkpt>
      <trkpt lat="43.32886" lon="-1.72414">
        <ele>423.9</ele>
        <time>2020-07-04T15:37:16Z</time>
      </trkpt>
      <trkpt lat="43.32897" lon="-1.72421">
        <ele>423.1</ele>
        <time>2020-07-04T15:37:19Z</time>
      </trkpt>
      <trkpt lat="43.32906" lon="-1.72419">
        <ele>422.1</ele>
        <time>2020-07-04T15:37:22Z</time>
      </trkpt>
      <trkpt lat="43.32915" lon="-1.72421">
        <ele>413.9</ele>
        <time>2020-07-04T15:37:59Z</time>
      </trkpt>
      <trkpt lat="43.32925" lon="-1.72424">
        <ele>413</ele>
        <time>2020-07-04T15:39:10Z</time>
      </trkpt>
      <trkpt lat="43.32934" lon="-1.72427">
        <ele>412.7</ele>
        <time>2020-07-04T15:39:13Z</time>
      </trkpt>
      <trkpt lat="43.32943" lon="-1.72429">
        <ele>412.1</ele>
        <time>2020-07-04T15:39:16Z</time>
      </trkpt>
      <trkpt lat="43.32953" lon="-1.72426">
        <ele>406.1</ele>
        <time>2020-07-04T15:40:39Z</time>
      </trkpt>
      <trkpt lat="43.32963" lon="-1.72418">
        <ele>405.9</ele>
        <time>2020-07-04T15:40:42Z</time>
      </trkpt>
      <trkpt lat="43.3297" lon="-1.7241">
        <ele>405.6</ele>
        <time>2020-07-04T15:40:44Z</time>
      </trkpt>
      <trkpt lat="43.3298" lon="-1.72399">
        <ele>404.8</ele>
        <time>2020-07-04T15:40:47Z</time>
      </trkpt>
      <trkpt lat="43.32988" lon="-1.72391">
        <ele>404.1</ele>
        <time>2020-07-04T15:40:49Z</time>
      </trkpt>
      <trkpt lat="43.32998" lon="-1.72382">
        <ele>402.5</ele>
        <time>2020-07-04T15:40:52Z</time>
      </trkpt>
      <trkpt lat="43.33006" lon="-1.72371">
        <ele>400</ele>
        <time>2020-07-04T15:40:57Z</time>
      </trkpt>
      <trkpt lat="43.33014" lon="-1.7236">
        <ele>398.1</ele>
        <time>2020-07-04T15:41:01Z</time>
      </trkpt>
      <trkpt lat="43.33022" lon="-1.72349">
        <ele>395.8</ele>
        <time>2020-07-04T15:41:05Z</time>
      </trkpt>
      <trkpt lat="43.33029" lon="-1.72338">
        <ele>392.9</ele>
        <time>2020-07-04T15:41:10Z</time>
      </trkpt>
      <trkpt lat="43.33035" lon="-1.72328">
        <ele>391.7</ele>
        <time>2020-07-04T15:41:12Z</time>
      </trkpt>
      <trkpt lat="43.3304" lon="-1.72315">
        <ele>390.3</ele>
        <time>2020-07-04T15:41:14Z</time>
      </trkpt>
      <trkpt lat="43.3304" lon="-1.72302">
        <ele>386.7</ele>
        <time>2020-07-04T15:41:20Z</time>
      </trkpt>
      <trkpt lat="43.33043" lon="-1.72285">
        <ele>384.8</ele>
        <time>2020-07-04T15:41:24Z</time>
      </trkpt>
      <trkpt lat="43.33043" lon="-1.72266">
        <ele>383.3</ele>
        <time>2020-07-04T15:41:27Z</time>
      </trkpt>
      <trkpt lat="43.33044" lon="-1.72251">
        <ele>382.4</ele>
        <time>2020-07-04T15:41:29Z</time>
      </trkpt>
      <trkpt lat="43.33045" lon="-1.72236">
        <ele>381.7</ele>
        <time>2020-07-04T15:41:31Z</time>
      </trkpt>
      <trkpt lat="43.33049" lon="-1.72223">
        <ele>380.9</ele>
        <time>2020-07-04T15:41:33Z</time>
      </trkpt>
      <trkpt lat="43.33052" lon="-1.72211">
        <ele>380</ele>
        <time>2020-07-04T15:41:35Z</time>
      </trkpt>
      <trkpt lat="43.33059" lon="-1.72198">
        <ele>378.9</ele>
        <time>2020-07-04T15:41:38Z</time>
      </trkpt>
      <trkpt lat="43.33056" lon="-1.72185">
        <ele>372.7</ele>
        <time>2020-07-04T15:43:22Z</time>
      </trkpt>
      <trkpt lat="43.3306" lon="-1.72173">
        <ele>372.2</ele>
        <time>2020-07-04T15:43:27Z</time>
      </trkpt>
      <trkpt lat="43.33066" lon="-1.72162">
        <ele>370.2</ele>
        <time>2020-07-04T15:43:35Z</time>
      </trkpt>
      <trkpt lat="43.3307" lon="-1.7215">
        <ele>368.6</ele>
        <time>2020-07-04T15:43:41Z</time>
      </trkpt>
      <trkpt lat="43.33073" lon="-1.72138">
        <ele>365.2</ele>
        <time>2020-07-04T15:43:53Z</time>
      </trkpt>
      <trkpt lat="43.33078" lon="-1.72126">
        <ele>362.3</ele>
        <time>2020-07-04T15:44:09Z</time>
      </trkpt>
      <trkpt lat="43.33082" lon="-1.72114">
        <ele>361.1</ele>
        <time>2020-07-04T15:44:13Z</time>
      </trkpt>
      <trkpt lat="43.33086" lon="-1.72102">
        <ele>359.7</ele>
        <time>2020-07-04T15:44:17Z</time>
      </trkpt>
      <trkpt lat="43.33089" lon="-1.7209">
        <ele>350.7</ele>
        <time>2020-07-04T15:45:03Z</time>
      </trkpt>
      <trkpt lat="43.33094" lon="-1.72077">
        <ele>350.2</ele>
        <time>2020-07-04T15:45:10Z</time>
      </trkpt>
      <trkpt lat="43.33097" lon="-1.72065">
        <ele>349.8</ele>
        <time>2020-07-04T15:45:14Z</time>
      </trkpt>
      <trkpt lat="43.33102" lon="-1.72053">
        <ele>343.1</ele>
        <time>2020-07-04T15:46:02Z</time>
      </trkpt>
      <trkpt lat="43.33106" lon="-1.72041">
        <ele>342.2</ele>
        <time>2020-07-04T15:46:22Z</time>
      </trkpt>
      <trkpt lat="43.3311" lon="-1.72029">
        <ele>338.6</ele>
        <time>2020-07-04T15:47:32Z</time>
      </trkpt>
      <trkpt lat="43.33114" lon="-1.72018">
        <ele>338.1</ele>
        <time>2020-07-04T15:47:36Z</time>
      </trkpt>
      <trkpt lat="43.33118" lon="-1.72004">
        <ele>337.6</ele>
        <time>2020-07-04T15:47:39Z</time>
      </trkpt>
      <trkpt lat="43.3312" lon="-1.7199">
        <ele>336.7</ele>
        <time>2020-07-04T15:47:42Z</time>
      </trkpt>
      <trkpt lat="43.33121" lon="-1.71976">
        <ele>335.5</ele>
        <time>2020-07-04T15:47:45Z</time>
      </trkpt>
      <trkpt lat="43.33125" lon="-1.71964">
        <ele>334.1</ele>
        <time>2020-07-04T15:47:48Z</time>
      </trkpt>
      <trkpt lat="43.33129" lon="-1.71951">
        <ele>332.8</ele>
        <time>2020-07-04T15:47:51Z</time>
      </trkpt>
      <trkpt lat="43.33135" lon="-1.71939">
        <ele>330.9</ele>
        <time>2020-07-04T15:47:55Z</time>
      </trkpt>
      <trkpt lat="43.33137" lon="-1.71924">
        <ele>328.8</ele>
        <time>2020-07-04T15:47:59Z</time>
      </trkpt>
      <trkpt lat="43.33138" lon="-1.71912">
        <ele>326.9</ele>
        <time>2020-07-04T15:48:02Z</time>
      </trkpt>
      <trkpt lat="43.33137" lon="-1.71899">
        <ele>325.1</ele>
        <time>2020-07-04T15:48:05Z</time>
      </trkpt>
      <trkpt lat="43.33139" lon="-1.71885">
        <ele>323.1</ele>
        <time>2020-07-04T15:48:09Z</time>
      </trkpt>
      <trkpt lat="43.33142" lon="-1.71873">
        <ele>315</ele>
        <time>2020-07-04T15:49:37Z</time>
      </trkpt>
      <trkpt lat="43.33143" lon="-1.71861">
        <ele>315.1</ele>
        <time>2020-07-04T15:49:44Z</time>
      </trkpt>
      <trkpt lat="43.33147" lon="-1.71847">
        <ele>315</ele>
        <time>2020-07-04T15:49:48Z</time>
      </trkpt>
      <trkpt lat="43.33151" lon="-1.71836">
        <ele>314.3</ele>
        <time>2020-07-04T15:49:53Z</time>
      </trkpt>
      <trkpt lat="43.33156" lon="-1.71824">
        <ele>309.2</ele>
        <time>2020-07-04T15:50:40Z</time>
      </trkpt>
      <trkpt lat="43.3316" lon="-1.7181">
        <ele>308.7</ele>
        <time>2020-07-04T15:50:44Z</time>
      </trkpt>
      <trkpt lat="43.33164" lon="-1.71795">
        <ele>307.7</ele>
        <time>2020-07-04T15:50:48Z</time>
      </trkpt>
      <trkpt lat="43.33173" lon="-1.71795">
        <ele>306.1</ele>
        <time>2020-07-04T15:50:52Z</time>
      </trkpt>
      <trkpt lat="43.33183" lon="-1.71796">
        <ele>303.6</ele>
        <time>2020-07-04T15:50:57Z</time>
      </trkpt>
      <trkpt lat="43.33193" lon="-1.71801">
        <ele>301.3</ele>
        <time>2020-07-04T15:51:02Z</time>
      </trkpt>
      <trkpt lat="43.33203" lon="-1.71807">
        <ele>299</ele>
        <time>2020-07-04T15:51:06Z</time>
      </trkpt>
      <trkpt lat="43.33211" lon="-1.71813">
        <ele>296.8</ele>
        <time>2020-07-04T15:51:10Z</time>
      </trkpt>
      <trkpt lat="43.33221" lon="-1.71813">
        <ele>285.7</ele>
        <time>2020-07-04T15:53:21Z</time>
      </trkpt>
      <trkpt lat="43.33231" lon="-1.7182">
        <ele>285.3</ele>
        <time>2020-07-04T15:53:26Z</time>
      </trkpt>
      <trkpt lat="43.33243" lon="-1.71819">
        <ele>284.5</ele>
        <time>2020-07-04T15:53:29Z</time>
      </trkpt>
      <trkpt lat="43.33251" lon="-1.71814">
        <ele>283.8</ele>
        <time>2020-07-04T15:53:31Z</time>
      </trkpt>
      <trkpt lat="43.33263" lon="-1.7181">
        <ele>282.8</ele>
        <time>2020-07-04T15:53:34Z</time>
      </trkpt>
      <trkpt lat="43.33272" lon="-1.71811">
        <ele>276.8</ele>
        <time>2020-07-04T15:53:58Z</time>
      </trkpt>
      <trkpt lat="43.33283" lon="-1.71811">
        <ele>276.2</ele>
        <time>2020-07-04T15:54:03Z</time>
      </trkpt>
      <trkpt lat="43.33294" lon="-1.71814">
        <ele>275.5</ele>
        <time>2020-07-04T15:54:07Z</time>
      </trkpt>
      <trkpt lat="43.33306" lon="-1.71815">
        <ele>274.9</ele>
        <time>2020-07-04T15:54:10Z</time>
      </trkpt>
      <trkpt lat="43.33318" lon="-1.7182">
        <ele>274.3</ele>
        <time>2020-07-04T15:54:13Z</time>
      </trkpt>
      <trkpt lat="43.3333" lon="-1.71829">
        <ele>273.3</ele>
        <time>2020-07-04T15:54:16Z</time>
      </trkpt>
      <trkpt lat="43.33339" lon="-1.71835">
        <ele>272.4</ele>
        <time>2020-07-04T15:54:18Z</time>
      </trkpt>
      <trkpt lat="43.33349" lon="-1.71844">
        <ele>271.3</ele>
        <time>2020-07-04T15:54:20Z</time>
      </trkpt>
      <trkpt lat="43.33361" lon="-1.71855">
        <ele>270</ele>
        <time>2020-07-04T15:54:22Z</time>
      </trkpt>
      <trkpt lat="43.33373" lon="-1.71869">
        <ele>268.7</ele>
        <time>2020-07-04T15:54:24Z</time>
      </trkpt>
      <trkpt lat="43.33385" lon="-1.71884">
        <ele>267.4</ele>
        <time>2020-07-04T15:54:26Z</time>
      </trkpt>
      <trkpt lat="43.33398" lon="-1.71899">
        <ele>266.2</ele>
        <time>2020-07-04T15:54:28Z</time>
      </trkpt>
      <trkpt lat="43.3341" lon="-1.71913">
        <ele>265</ele>
        <time>2020-07-04T15:54:30Z</time>
      </trkpt>
      <trkpt lat="43.33419" lon="-1.7192">
        <ele>263.7</ele>
        <time>2020-07-04T15:54:32Z</time>
      </trkpt>
      <trkpt lat="43.33424" lon="-1.7193">
        <ele>254.6</ele>
        <time>2020-07-04T15:54:57Z</time>
      </trkpt>
      <trkpt lat="43.33426" lon="-1.71943">
        <ele>252</ele>
        <time>2020-07-04T15:57:07Z</time>
      </trkpt>
      <trkpt lat="43.33434" lon="-1.71956">
        <ele>252</ele>
        <time>2020-07-04T15:57:10Z</time>
      </trkpt>
      <trkpt lat="43.33441" lon="-1.71965">
        <ele>251.8</ele>
        <time>2020-07-04T15:57:12Z</time>
      </trkpt>
      <trkpt lat="43.33448" lon="-1.71974">
        <ele>251.7</ele>
        <time>2020-07-04T15:57:14Z</time>
      </trkpt>
      <trkpt lat="43.33454" lon="-1.71984">
        <ele>251.6</ele>
        <time>2020-07-04T15:57:16Z</time>
      </trkpt>
      <trkpt lat="43.33461" lon="-1.71994">
        <ele>251.6</ele>
        <time>2020-07-04T15:57:18Z</time>
      </trkpt>
      <trkpt lat="43.33467" lon="-1.72003">
        <ele>251.5</ele>
        <time>2020-07-04T15:57:20Z</time>
      </trkpt>
      <trkpt lat="43.33474" lon="-1.72013">
        <ele>251.5</ele>
        <time>2020-07-04T15:57:22Z</time>
      </trkpt>
      <trkpt lat="43.33481" lon="-1.72023">
        <ele>251.4</ele>
        <time>2020-07-04T15:57:24Z</time>
      </trkpt>
      <trkpt lat="43.33487" lon="-1.72033">
        <ele>251.3</ele>
        <time>2020-07-04T15:57:26Z</time>
      </trkpt>
      <trkpt lat="43.33495" lon="-1.72043">
        <ele>251.3</ele>
        <time>2020-07-04T15:57:28Z</time>
      </trkpt>
      <trkpt lat="43.33502" lon="-1.72054">
        <ele>251.2</ele>
        <time>2020-07-04T15:57:30Z</time>
      </trkpt>
      <trkpt lat="43.33509" lon="-1.72065">
        <ele>251.1</ele>
        <time>2020-07-04T15:57:32Z</time>
      </trkpt>
      <trkpt lat="43.33517" lon="-1.72077">
        <ele>251.1</ele>
        <time>2020-07-04T15:57:34Z</time>
      </trkpt>
      <trkpt lat="43.33525" lon="-1.72087">
        <ele>251</ele>
        <time>2020-07-04T15:57:36Z</time>
      </trkpt>
      <trkpt lat="43.33533" lon="-1.72098">
        <ele>251</ele>
        <time>2020-07-04T15:57:38Z</time>
      </trkpt>
      <trkpt lat="43.33541" lon="-1.72108">
        <ele>250.9</ele>
        <time>2020-07-04T15:57:40Z</time>
      </trkpt>
      <trkpt lat="43.3355" lon="-1.72117">
        <ele>250.8</ele>
        <time>2020-07-04T15:57:42Z</time>
      </trkpt>
      <trkpt lat="43.33558" lon="-1.72126">
        <ele>250.8</ele>
        <time>2020-07-04T15:57:44Z</time>
      </trkpt>
      <trkpt lat="43.33567" lon="-1.72133">
        <ele>250.7</ele>
        <time>2020-07-04T15:57:46Z</time>
      </trkpt>
      <trkpt lat="43.33578" lon="-1.7214">
        <ele>250.7</ele>
        <time>2020-07-04T15:57:49Z</time>
      </trkpt>
      <trkpt lat="43.3359" lon="-1.72146">
        <ele>250.6</ele>
        <time>2020-07-04T15:57:52Z</time>
      </trkpt>
      <trkpt lat="43.33602" lon="-1.72154">
        <ele>250.5</ele>
        <time>2020-07-04T15:57:55Z</time>
      </trkpt>
      <trkpt lat="43.33613" lon="-1.72164">
        <ele>250.5</ele>
        <time>2020-07-04T15:57:58Z</time>
      </trkpt>
      <trkpt lat="43.33623" lon="-1.72174">
        <ele>250.6</ele>
        <time>2020-07-04T15:58:01Z</time>
      </trkpt>
      <trkpt lat="43.33632" lon="-1.72182">
        <ele>250.7</ele>
        <time>2020-07-04T15:58:04Z</time>
      </trkpt>
      <trkpt lat="43.33642" lon="-1.72185">
        <ele>250.9</ele>
        <time>2020-07-04T15:58:07Z</time>
      </trkpt>
      <trkpt lat="43.33652" lon="-1.72182">
        <ele>250.8</ele>
        <time>2020-07-04T15:58:11Z</time>
      </trkpt>
      <trkpt lat="43.33662" lon="-1.72178">
        <ele>249.4</ele>
        <time>2020-07-04T15:58:40Z</time>
      </trkpt>
      <trkpt lat="43.33675" lon="-1.72171">
        <ele>249.3</ele>
        <time>2020-07-04T15:58:43Z</time>
      </trkpt>
      <trkpt lat="43.33687" lon="-1.72166">
        <ele>249.3</ele>
        <time>2020-07-04T15:58:45Z</time>
      </trkpt>
      <trkpt lat="43.33699" lon="-1.72162">
        <ele>249</ele>
        <time>2020-07-04T15:58:47Z</time>
      </trkpt>
      <trkpt lat="43.33711" lon="-1.72161">
        <ele>248.8</ele>
        <time>2020-07-04T15:58:49Z</time>
      </trkpt>
      <trkpt lat="43.33719" lon="-1.7217">
        <ele>248.4</ele>
        <time>2020-07-04T15:58:52Z</time>
      </trkpt>
      <trkpt lat="43.33727" lon="-1.7218">
        <ele>245.2</ele>
        <time>2020-07-04T15:59:04Z</time>
      </trkpt>
      <trkpt lat="43.33736" lon="-1.7219">
        <ele>244.7</ele>
        <time>2020-07-04T15:59:07Z</time>
      </trkpt>
      <trkpt lat="43.33744" lon="-1.72199">
        <ele>244.4</ele>
        <time>2020-07-04T15:59:09Z</time>
      </trkpt>
      <trkpt lat="43.33751" lon="-1.72207">
        <ele>243.8</ele>
        <time>2020-07-04T15:59:11Z</time>
      </trkpt>
      <trkpt lat="43.33757" lon="-1.72219">
        <ele>243.2</ele>
        <time>2020-07-04T15:59:13Z</time>
      </trkpt>
      <trkpt lat="43.33761" lon="-1.72231">
        <ele>241.9</ele>
        <time>2020-07-04T15:59:15Z</time>
      </trkpt>
      <trkpt lat="43.33766" lon="-1.72246">
        <ele>240.8</ele>
        <time>2020-07-04T15:59:17Z</time>
      </trkpt>
      <trkpt lat="43.33771" lon="-1.72261">
        <ele>239.6</ele>
        <time>2020-07-04T15:59:19Z</time>
      </trkpt>
      <trkpt lat="43.33778" lon="-1.7228">
        <ele>238.4</ele>
        <time>2020-07-04T15:59:21Z</time>
      </trkpt>
      <trkpt lat="43.33788" lon="-1.723">
        <ele>237.3</ele>
        <time>2020-07-04T15:59:23Z</time>
      </trkpt>
      <trkpt lat="43.33795" lon="-1.72317">
        <ele>235.7</ele>
        <time>2020-07-04T15:59:25Z</time>
      </trkpt>
      <trkpt lat="43.33801" lon="-1.72327">
        <ele>233.4</ele>
        <time>2020-07-04T15:59:28Z</time>
      </trkpt>
      <trkpt lat="43.338" lon="-1.72344">
        <ele>226.4</ele>
        <time>2020-07-04T15:59:40Z</time>
      </trkpt>
      <trkpt lat="43.338" lon="-1.72357">
        <ele>225.4</ele>
        <time>2020-07-04T15:59:42Z</time>
      </trkpt>
      <trkpt lat="43.33801" lon="-1.72373">
        <ele>224.5</ele>
        <time>2020-07-04T15:59:44Z</time>
      </trkpt>
      <trkpt lat="43.33803" lon="-1.7239">
        <ele>223.3</ele>
        <time>2020-07-04T15:59:46Z</time>
      </trkpt>
      <trkpt lat="43.33807" lon="-1.72409">
        <ele>222.1</ele>
        <time>2020-07-04T15:59:48Z</time>
      </trkpt>
      <trkpt lat="43.33813" lon="-1.72427">
        <ele>220.7</ele>
        <time>2020-07-04T15:59:50Z</time>
      </trkpt>
      <trkpt lat="43.33818" lon="-1.72443">
        <ele>219.1</ele>
        <time>2020-07-04T15:59:52Z</time>
      </trkpt>
      <trkpt lat="43.33825" lon="-1.7246">
        <ele>217.6</ele>
        <time>2020-07-04T15:59:54Z</time>
      </trkpt>
      <trkpt lat="43.33836" lon="-1.72474">
        <ele>215.6</ele>
        <time>2020-07-04T15:59:56Z</time>
      </trkpt>
      <trkpt lat="43.33848" lon="-1.72484">
        <ele>213.7</ele>
        <time>2020-07-04T15:59:58Z</time>
      </trkpt>
      <trkpt lat="43.33857" lon="-1.72491">
        <ele>211.8</ele>
        <time>2020-07-04T16:00:00Z</time>
      </trkpt>
      <trkpt lat="43.33866" lon="-1.72498">
        <ele>210</ele>
        <time>2020-07-04T16:00:02Z</time>
      </trkpt>
      <trkpt lat="43.33875" lon="-1.7251">
        <ele>207.4</ele>
        <time>2020-07-04T16:00:05Z</time>
      </trkpt>
      <trkpt lat="43.33882" lon="-1.72523">
        <ele>205.1</ele>
        <time>2020-07-04T16:00:08Z</time>
      </trkpt>
      <trkpt lat="43.33887" lon="-1.72533">
        <ele>198</ele>
        <time>2020-07-04T16:00:18Z</time>
      </trkpt>
      <trkpt lat="43.33892" lon="-1.72544">
        <ele>188.8</ele>
        <time>2020-07-04T16:01:13Z</time>
      </trkpt>
      <trkpt lat="43.33897" lon="-1.72557">
        <ele>188.7</ele>
        <time>2020-07-04T16:01:15Z</time>
      </trkpt>
      <trkpt lat="43.33904" lon="-1.72573">
        <ele>188.6</ele>
        <time>2020-07-04T16:01:17Z</time>
      </trkpt>
      <trkpt lat="43.33911" lon="-1.72593">
        <ele>188.1</ele>
        <time>2020-07-04T16:01:19Z</time>
      </trkpt>
      <trkpt lat="43.33918" lon="-1.72614">
        <ele>187.4</ele>
        <time>2020-07-04T16:01:21Z</time>
      </trkpt>
      <trkpt lat="43.33924" lon="-1.7263">
        <ele>186.1</ele>
        <time>2020-07-04T16:01:23Z</time>
      </trkpt>
      <trkpt lat="43.33929" lon="-1.72643">
        <ele>184.9</ele>
        <time>2020-07-04T16:01:25Z</time>
      </trkpt>
      <trkpt lat="43.33935" lon="-1.72657">
        <ele>183</ele>
        <time>2020-07-04T16:01:28Z</time>
      </trkpt>
      <trkpt lat="43.33939" lon="-1.72667">
        <ele>174.2</ele>
        <time>2020-07-04T16:01:44Z</time>
      </trkpt>
      <trkpt lat="43.33941" lon="-1.72682">
        <ele>170.1</ele>
        <time>2020-07-04T16:02:27Z</time>
      </trkpt>
      <trkpt lat="43.33948" lon="-1.72693">
        <ele>170</ele>
        <time>2020-07-04T16:02:31Z</time>
      </trkpt>
      <trkpt lat="43.33957" lon="-1.72697">
        <ele>169.8</ele>
        <time>2020-07-04T16:02:33Z</time>
      </trkpt>
      <trkpt lat="43.33969" lon="-1.72699">
        <ele>169.5</ele>
        <time>2020-07-04T16:02:35Z</time>
      </trkpt>
      <trkpt lat="43.33985" lon="-1.72701">
        <ele>168.9</ele>
        <time>2020-07-04T16:02:37Z</time>
      </trkpt>
      <trkpt lat="43.34002" lon="-1.72704">
        <ele>168.1</ele>
        <time>2020-07-04T16:02:39Z</time>
      </trkpt>
      <trkpt lat="43.34019" lon="-1.72708">
        <ele>167.4</ele>
        <time>2020-07-04T16:02:41Z</time>
      </trkpt>
      <trkpt lat="43.34034" lon="-1.72713">
        <ele>166.4</ele>
        <time>2020-07-04T16:02:43Z</time>
      </trkpt>
      <trkpt lat="43.34048" lon="-1.72724">
        <ele>165.5</ele>
        <time>2020-07-04T16:02:45Z</time>
      </trkpt>
      <trkpt lat="43.34058" lon="-1.72741">
        <ele>164.3</ele>
        <time>2020-07-04T16:02:47Z</time>
      </trkpt>
      <trkpt lat="43.34065" lon="-1.72762">
        <ele>163</ele>
        <time>2020-07-04T16:02:49Z</time>
      </trkpt>
      <trkpt lat="43.3407" lon="-1.72786">
        <ele>161.5</ele>
        <time>2020-07-04T16:02:51Z</time>
      </trkpt>
      <trkpt lat="43.34072" lon="-1.72809">
        <ele>160.1</ele>
        <time>2020-07-04T16:02:53Z</time>
      </trkpt>
      <trkpt lat="43.34073" lon="-1.72833">
        <ele>158.3</ele>
        <time>2020-07-04T16:02:55Z</time>
      </trkpt>
      <trkpt lat="43.34073" lon="-1.72847">
        <ele>157.3</ele>
        <time>2020-07-04T16:02:56Z</time>
      </trkpt>
      <trkpt lat="43.34072" lon="-1.72859">
        <ele>156.2</ele>
        <time>2020-07-04T16:02:57Z</time>
      </trkpt>
      <trkpt lat="43.34068" lon="-1.7288">
        <ele>154.3</ele>
        <time>2020-07-04T16:02:59Z</time>
      </trkpt>
      <trkpt lat="43.3406" lon="-1.72893">
        <ele>152</ele>
        <time>2020-07-04T16:03:01Z</time>
      </trkpt>
      <trkpt lat="43.34058" lon="-1.72906">
        <ele>148.8</ele>
        <time>2020-07-04T16:03:04Z</time>
      </trkpt>
      <trkpt lat="43.34068" lon="-1.72901">
        <ele>145.7</ele>
        <time>2020-07-04T16:03:07Z</time>
      </trkpt>
      <trkpt lat="43.34077" lon="-1.72895">
        <ele>143.2</ele>
        <time>2020-07-04T16:03:10Z</time>
      </trkpt>
      <trkpt lat="43.34088" lon="-1.72885">
        <ele>141.1</ele>
        <time>2020-07-04T16:03:13Z</time>
      </trkpt>
      <trkpt lat="43.34096" lon="-1.72874">
        <ele>139</ele>
        <time>2020-07-04T16:03:16Z</time>
      </trkpt>
      <trkpt lat="43.34104" lon="-1.72864">
        <ele>137.8</ele>
        <time>2020-07-04T16:03:18Z</time>
      </trkpt>
      <trkpt lat="43.34112" lon="-1.72853">
        <ele>136.8</ele>
        <time>2020-07-04T16:03:20Z</time>
      </trkpt>
      <trkpt lat="43.34119" lon="-1.72842">
        <ele>135.4</ele>
        <time>2020-07-04T16:03:22Z</time>
      </trkpt>
      <trkpt lat="43.34127" lon="-1.72831">
        <ele>134.2</ele>
        <time>2020-07-04T16:03:24Z</time>
      </trkpt>
      <trkpt lat="43.34133" lon="-1.72821">
        <ele>133</ele>
        <time>2020-07-04T16:03:26Z</time>
      </trkpt>
      <trkpt lat="43.3414" lon="-1.72812">
        <ele>131.6</ele>
        <time>2020-07-04T16:03:28Z</time>
      </trkpt>
      <trkpt lat="43.34148" lon="-1.72804">
        <ele>128.9</ele>
        <time>2020-07-04T16:03:32Z</time>
      </trkpt>
      <trkpt lat="43.34156" lon="-1.72815">
        <ele>119</ele>
        <time>2020-07-04T16:04:04Z</time>
      </trkpt>
      <trkpt lat="43.34161" lon="-1.72825">
        <ele>118.8</ele>
        <time>2020-07-04T16:04:07Z</time>
      </trkpt>
      <trkpt lat="43.34166" lon="-1.72839">
        <ele>118.5</ele>
        <time>2020-07-04T16:04:10Z</time>
      </trkpt>
      <trkpt lat="43.34171" lon="-1.72854">
        <ele>118.4</ele>
        <time>2020-07-04T16:04:13Z</time>
      </trkpt>
      <trkpt lat="43.34175" lon="-1.72866">
        <ele>118.2</ele>
        <time>2020-07-04T16:04:15Z</time>
      </trkpt>
      <trkpt lat="43.34179" lon="-1.72878">
        <ele>118.2</ele>
        <time>2020-07-04T16:04:17Z</time>
      </trkpt>
      <trkpt lat="43.34185" lon="-1.72893">
        <ele>118</ele>
        <time>2020-07-04T16:04:20Z</time>
      </trkpt>
      <trkpt lat="43.34185" lon="-1.72906">
        <ele>114.5</ele>
        <time>2020-07-04T16:05:38Z</time>
      </trkpt>
      <trkpt lat="43.34192" lon="-1.72915">
        <ele>114.4</ele>
        <time>2020-07-04T16:05:57Z</time>
      </trkpt>
      <trkpt lat="43.34193" lon="-1.72929">
        <ele>114.3</ele>
        <time>2020-07-04T16:06:02Z</time>
      </trkpt>
      <trkpt lat="43.34194" lon="-1.72942">
        <ele>113.9</ele>
        <time>2020-07-04T16:06:06Z</time>
      </trkpt>
      <trkpt lat="43.34192" lon="-1.72958">
        <ele>113.2</ele>
        <time>2020-07-04T16:06:11Z</time>
      </trkpt>
      <trkpt lat="43.3419" lon="-1.72971">
        <ele>112.8</ele>
        <time>2020-07-04T16:06:14Z</time>
      </trkpt>
      <trkpt lat="43.34186" lon="-1.72986">
        <ele>112.1</ele>
        <time>2020-07-04T16:06:17Z</time>
      </trkpt>
      <trkpt lat="43.34182" lon="-1.73002">
        <ele>111.5</ele>
        <time>2020-07-04T16:06:20Z</time>
      </trkpt>
      <trkpt lat="43.34177" lon="-1.73019">
        <ele>110.9</ele>
        <time>2020-07-04T16:06:23Z</time>
      </trkpt>
      <trkpt lat="43.34174" lon="-1.73032">
        <ele>110.4</ele>
        <time>2020-07-04T16:06:25Z</time>
      </trkpt>
      <trkpt lat="43.3417" lon="-1.73046">
        <ele>109.8</ele>
        <time>2020-07-04T16:06:27Z</time>
      </trkpt>
      <trkpt lat="43.34168" lon="-1.73062">
        <ele>109.1</ele>
        <time>2020-07-04T16:06:29Z</time>
      </trkpt>
      <trkpt lat="43.34165" lon="-1.73078">
        <ele>108.4</ele>
        <time>2020-07-04T16:06:31Z</time>
      </trkpt>
      <trkpt lat="43.34163" lon="-1.73097">
        <ele>107.7</ele>
        <time>2020-07-04T16:06:33Z</time>
      </trkpt>
      <trkpt lat="43.3416" lon="-1.73118">
        <ele>106.9</ele>
        <time>2020-07-04T16:06:35Z</time>
      </trkpt>
      <trkpt lat="43.34158" lon="-1.73138">
        <ele>105.8</ele>
        <time>2020-07-04T16:06:37Z</time>
      </trkpt>
      <trkpt lat="43.34155" lon="-1.73159">
        <ele>104.8</ele>
        <time>2020-07-04T16:06:39Z</time>
      </trkpt>
      <trkpt lat="43.34152" lon="-1.73182">
        <ele>103.8</ele>
        <time>2020-07-04T16:06:41Z</time>
      </trkpt>
      <trkpt lat="43.34149" lon="-1.73205">
        <ele>102.7</ele>
        <time>2020-07-04T16:06:43Z</time>
      </trkpt>
      <trkpt lat="43.34147" lon="-1.73228">
        <ele>101.4</ele>
        <time>2020-07-04T16:06:45Z</time>
      </trkpt>
      <trkpt lat="43.34146" lon="-1.73241">
        <ele>100.8</ele>
        <time>2020-07-04T16:06:46Z</time>
      </trkpt>
      <trkpt lat="43.34144" lon="-1.73253">
        <ele>100.2</ele>
        <time>2020-07-04T16:06:47Z</time>
      </trkpt>
      <trkpt lat="43.34143" lon="-1.73265">
        <ele>99.5</ele>
        <time>2020-07-04T16:06:48Z</time>
      </trkpt>
      <trkpt lat="43.34141" lon="-1.73289">
        <ele>98.1</ele>
        <time>2020-07-04T16:06:50Z</time>
      </trkpt>
      <trkpt lat="43.3414" lon="-1.73311">
        <ele>96.8</ele>
        <time>2020-07-04T16:06:52Z</time>
      </trkpt>
      <trkpt lat="43.34143" lon="-1.73329">
        <ele>95.5</ele>
        <time>2020-07-04T16:06:54Z</time>
      </trkpt>
      <trkpt lat="43.34148" lon="-1.73345">
        <ele>94.4</ele>
        <time>2020-07-04T16:06:56Z</time>
      </trkpt>
      <trkpt lat="43.34155" lon="-1.73357">
        <ele>93.2</ele>
        <time>2020-07-04T16:06:58Z</time>
      </trkpt>
      <trkpt lat="43.34164" lon="-1.73365">
        <ele>92.2</ele>
        <time>2020-07-04T16:07:00Z</time>
      </trkpt>
      <trkpt lat="43.34176" lon="-1.73374">
        <ele>91</ele>
        <time>2020-07-04T16:07:02Z</time>
      </trkpt>
      <trkpt lat="43.34186" lon="-1.73385">
        <ele>89.6</ele>
        <time>2020-07-04T16:07:04Z</time>
      </trkpt>
      <trkpt lat="43.34194" lon="-1.73401">
        <ele>88.4</ele>
        <time>2020-07-04T16:07:06Z</time>
      </trkpt>
      <trkpt lat="43.34201" lon="-1.7342">
        <ele>87.1</ele>
        <time>2020-07-04T16:07:08Z</time>
      </trkpt>
      <trkpt lat="43.34204" lon="-1.7344">
        <ele>85.8</ele>
        <time>2020-07-04T16:07:10Z</time>
      </trkpt>
      <trkpt lat="43.34205" lon="-1.7346">
        <ele>84.5</ele>
        <time>2020-07-04T16:07:12Z</time>
      </trkpt>
      <trkpt lat="43.34204" lon="-1.73478">
        <ele>83.1</ele>
        <time>2020-07-04T16:07:14Z</time>
      </trkpt>
      <trkpt lat="43.34204" lon="-1.73497">
        <ele>81.6</ele>
        <time>2020-07-04T16:07:16Z</time>
      </trkpt>
      <trkpt lat="43.34204" lon="-1.73518">
        <ele>80.2</ele>
        <time>2020-07-04T16:07:18Z</time>
      </trkpt>
      <trkpt lat="43.34204" lon="-1.73537">
        <ele>79</ele>
        <time>2020-07-04T16:07:20Z</time>
      </trkpt>
      <trkpt lat="43.34205" lon="-1.73554">
        <ele>77.9</ele>
        <time>2020-07-04T16:07:22Z</time>
      </trkpt>
      <trkpt lat="43.34206" lon="-1.73571">
        <ele>76.6</ele>
        <time>2020-07-04T16:07:24Z</time>
      </trkpt>
      <trkpt lat="43.34207" lon="-1.73587">
        <ele>75.4</ele>
        <time>2020-07-04T16:07:26Z</time>
      </trkpt>
      <trkpt lat="43.3421" lon="-1.73603">
        <ele>74.2</ele>
        <time>2020-07-04T16:07:28Z</time>
      </trkpt>
      <trkpt lat="43.34212" lon="-1.73621">
        <ele>73</ele>
        <time>2020-07-04T16:07:30Z</time>
      </trkpt>
      <trkpt lat="43.34216" lon="-1.73638">
        <ele>71.8</ele>
        <time>2020-07-04T16:07:32Z</time>
      </trkpt>
      <trkpt lat="43.34219" lon="-1.73657">
        <ele>70.7</ele>
        <time>2020-07-04T16:07:34Z</time>
      </trkpt>
      <trkpt lat="43.34221" lon="-1.73678">
        <ele>69.8</ele>
        <time>2020-07-04T16:07:36Z</time>
      </trkpt>
      <trkpt lat="43.34223" lon="-1.73699">
        <ele>68.9</ele>
        <time>2020-07-04T16:07:38Z</time>
      </trkpt>
      <trkpt lat="43.34225" lon="-1.7372">
        <ele>68</ele>
        <time>2020-07-04T16:07:40Z</time>
      </trkpt>
      <trkpt lat="43.34227" lon="-1.73742">
        <ele>66.9</ele>
        <time>2020-07-04T16:07:42Z</time>
      </trkpt>
      <trkpt lat="43.34228" lon="-1.73762">
        <ele>65.6</ele>
        <time>2020-07-04T16:07:44Z</time>
      </trkpt>
      <trkpt lat="43.34229" lon="-1.73783">
        <ele>64.5</ele>
        <time>2020-07-04T16:07:46Z</time>
      </trkpt>
      <trkpt lat="43.3423" lon="-1.73803">
        <ele>63.2</ele>
        <time>2020-07-04T16:07:48Z</time>
      </trkpt>
      <trkpt lat="43.34232" lon="-1.73824">
        <ele>61.8</ele>
        <time>2020-07-04T16:07:50Z</time>
      </trkpt>
      <trkpt lat="43.34235" lon="-1.73847">
        <ele>60.3</ele>
        <time>2020-07-04T16:07:52Z</time>
      </trkpt>
      <trkpt lat="43.34241" lon="-1.73869">
        <ele>58.5</ele>
        <time>2020-07-04T16:07:54Z</time>
      </trkpt>
      <trkpt lat="43.34247" lon="-1.73892">
        <ele>56.8</ele>
        <time>2020-07-04T16:07:56Z</time>
      </trkpt>
      <trkpt lat="43.34253" lon="-1.73913">
        <ele>55</ele>
        <time>2020-07-04T16:07:58Z</time>
      </trkpt>
      <trkpt lat="43.34257" lon="-1.73932">
        <ele>53.2</ele>
        <time>2020-07-04T16:08:00Z</time>
      </trkpt>
      <trkpt lat="43.34257" lon="-1.7395">
        <ele>51.5</ele>
        <time>2020-07-04T16:08:02Z</time>
      </trkpt>
      <trkpt lat="43.34254" lon="-1.73968">
        <ele>49.9</ele>
        <time>2020-07-04T16:08:04Z</time>
      </trkpt>
      <trkpt lat="43.34251" lon="-1.73986">
        <ele>48.6</ele>
        <time>2020-07-04T16:08:06Z</time>
      </trkpt>
      <trkpt lat="43.3425" lon="-1.74005">
        <ele>47.3</ele>
        <time>2020-07-04T16:08:08Z</time>
      </trkpt>
      <trkpt lat="43.34251" lon="-1.74022">
        <ele>46.2</ele>
        <time>2020-07-04T16:08:10Z</time>
      </trkpt>
      <trkpt lat="43.34254" lon="-1.74038">
        <ele>45.2</ele>
        <time>2020-07-04T16:08:12Z</time>
      </trkpt>
      <trkpt lat="43.34257" lon="-1.74052">
        <ele>44.1</ele>
        <time>2020-07-04T16:08:14Z</time>
      </trkpt>
      <trkpt lat="43.3426" lon="-1.74066">
        <ele>42.7</ele>
        <time>2020-07-04T16:08:17Z</time>
      </trkpt>
      <trkpt lat="43.34259" lon="-1.74079">
        <ele>39.6</ele>
        <time>2020-07-04T16:08:30Z</time>
      </trkpt>
      <trkpt lat="43.34261" lon="-1.74092">
        <ele>38.4</ele>
        <time>2020-07-04T16:09:18Z</time>
      </trkpt>
      <trkpt lat="43.34265" lon="-1.74104">
        <ele>38.7</ele>
        <time>2020-07-04T16:09:23Z</time>
      </trkpt>
      <trkpt lat="43.34268" lon="-1.74118">
        <ele>39.4</ele>
        <time>2020-07-04T16:09:28Z</time>
      </trkpt>
      <trkpt lat="43.34271" lon="-1.7413">
        <ele>40.3</ele>
        <time>2020-07-04T16:09:33Z</time>
      </trkpt>
      <trkpt lat="43.34274" lon="-1.74144">
        <ele>41.7</ele>
        <time>2020-07-04T16:09:38Z</time>
      </trkpt>
      <trkpt lat="43.34278" lon="-1.74155">
        <ele>43.4</ele>
        <time>2020-07-04T16:09:43Z</time>
      </trkpt>
      <trkpt lat="43.34287" lon="-1.74152">
        <ele>45.8</ele>
        <time>2020-07-04T16:09:50Z</time>
      </trkpt>
      <trkpt lat="43.34291" lon="-1.7414">
        <ele>47.9</ele>
        <time>2020-07-04T16:09:56Z</time>
      </trkpt>
      <trkpt lat="43.34294" lon="-1.74128">
        <ele>50.2</ele>
        <time>2020-07-04T16:10:02Z</time>
      </trkpt>
      <trkpt lat="43.34297" lon="-1.74115">
        <ele>52.5</ele>
        <time>2020-07-04T16:10:08Z</time>
      </trkpt>
      <trkpt lat="43.34302" lon="-1.74103">
        <ele>54.2</ele>
        <time>2020-07-04T16:10:14Z</time>
      </trkpt>
      <trkpt lat="43.34309" lon="-1.74094">
        <ele>56</ele>
        <time>2020-07-04T16:10:20Z</time>
      </trkpt>
      <trkpt lat="43.34318" lon="-1.74091">
        <ele>57.6</ele>
        <time>2020-07-04T16:10:25Z</time>
      </trkpt>
      <trkpt lat="43.34329" lon="-1.7409">
        <ele>59.5</ele>
        <time>2020-07-04T16:10:31Z</time>
      </trkpt>
      <trkpt lat="43.34339" lon="-1.74088">
        <ele>60.9</ele>
        <time>2020-07-04T16:10:36Z</time>
      </trkpt>
      <trkpt lat="43.34348" lon="-1.74085">
        <ele>62.4</ele>
        <time>2020-07-04T16:10:41Z</time>
      </trkpt>
      <trkpt lat="43.34357" lon="-1.74076">
        <ele>63.5</ele>
        <time>2020-07-04T16:10:46Z</time>
      </trkpt>
      <trkpt lat="43.34365" lon="-1.74067">
        <ele>64.1</ele>
        <time>2020-07-04T16:10:50Z</time>
      </trkpt>
      <trkpt lat="43.34371" lon="-1.74058">
        <ele>64.6</ele>
        <time>2020-07-04T16:10:54Z</time>
      </trkpt>
      <trkpt lat="43.34379" lon="-1.7405">
        <ele>65.1</ele>
        <time>2020-07-04T16:10:58Z</time>
      </trkpt>
      <trkpt lat="43.34387" lon="-1.74044">
        <ele>65.6</ele>
        <time>2020-07-04T16:11:02Z</time>
      </trkpt>
      <trkpt lat="43.34395" lon="-1.74037">
        <ele>66.2</ele>
        <time>2020-07-04T16:11:07Z</time>
      </trkpt>
      <trkpt lat="43.34404" lon="-1.74032">
        <ele>68.6</ele>
        <time>2020-07-04T16:11:24Z</time>
      </trkpt>
      <trkpt lat="43.34412" lon="-1.74036">
        <ele>70.7</ele>
        <time>2020-07-04T16:13:01Z</time>
      </trkpt>
      <trkpt lat="43.34423" lon="-1.74031">
        <ele>70.7</ele>
        <time>2020-07-04T16:13:05Z</time>
      </trkpt>
      <trkpt lat="43.34433" lon="-1.74026">
        <ele>70.7</ele>
        <time>2020-07-04T16:13:08Z</time>
      </trkpt>
      <trkpt lat="43.34444" lon="-1.74021">
        <ele>71</ele>
        <time>2020-07-04T16:13:11Z</time>
      </trkpt>
      <trkpt lat="43.34456" lon="-1.74015">
        <ele>71.6</ele>
        <time>2020-07-04T16:13:14Z</time>
      </trkpt>
      <trkpt lat="43.34467" lon="-1.74009">
        <ele>72.2</ele>
        <time>2020-07-04T16:13:17Z</time>
      </trkpt>
      <trkpt lat="43.34478" lon="-1.74003">
        <ele>72.7</ele>
        <time>2020-07-04T16:13:20Z</time>
      </trkpt>
      <trkpt lat="43.3449" lon="-1.73998">
        <ele>73.1</ele>
        <time>2020-07-04T16:13:23Z</time>
      </trkpt>
      <trkpt lat="43.34502" lon="-1.73995">
        <ele>73.7</ele>
        <time>2020-07-04T16:13:26Z</time>
      </trkpt>
      <trkpt lat="43.34511" lon="-1.73992">
        <ele>74.1</ele>
        <time>2020-07-04T16:13:29Z</time>
      </trkpt>
      <trkpt lat="43.34521" lon="-1.73988">
        <ele>74.9</ele>
        <time>2020-07-04T16:13:33Z</time>
      </trkpt>
      <trkpt lat="43.34531" lon="-1.73984">
        <ele>75.9</ele>
        <time>2020-07-04T16:13:37Z</time>
      </trkpt>
      <trkpt lat="43.3454" lon="-1.7398">
        <ele>77</ele>
        <time>2020-07-04T16:13:41Z</time>
      </trkpt>
      <trkpt lat="43.3455" lon="-1.73979">
        <ele>78</ele>
        <time>2020-07-04T16:13:45Z</time>
      </trkpt>
      <trkpt lat="43.34559" lon="-1.73985">
        <ele>79.3</ele>
        <time>2020-07-04T16:13:50Z</time>
      </trkpt>
      <trkpt lat="43.34567" lon="-1.73995">
        <ele>80.4</ele>
        <time>2020-07-04T16:13:55Z</time>
      </trkpt>
      <trkpt lat="43.3457" lon="-1.74009">
        <ele>81.4</ele>
        <time>2020-07-04T16:14:00Z</time>
      </trkpt>
      <trkpt lat="43.34574" lon="-1.74024">
        <ele>82</ele>
        <time>2020-07-04T16:14:04Z</time>
      </trkpt>
      <trkpt lat="43.34579" lon="-1.74038">
        <ele>82.4</ele>
        <time>2020-07-04T16:14:07Z</time>
      </trkpt>
      <trkpt lat="43.34584" lon="-1.74051">
        <ele>82.5</ele>
        <time>2020-07-04T16:14:09Z</time>
      </trkpt>
      <trkpt lat="43.3459" lon="-1.74064">
        <ele>82.3</ele>
        <time>2020-07-04T16:14:11Z</time>
      </trkpt>
      <trkpt lat="43.34598" lon="-1.74076">
        <ele>82.1</ele>
        <time>2020-07-04T16:14:13Z</time>
      </trkpt>
      <trkpt lat="43.34606" lon="-1.74087">
        <ele>81.7</ele>
        <time>2020-07-04T16:14:15Z</time>
      </trkpt>
      <trkpt lat="43.34615" lon="-1.74096">
        <ele>81.3</ele>
        <time>2020-07-04T16:14:17Z</time>
      </trkpt>
      <trkpt lat="43.34624" lon="-1.74107">
        <ele>80.8</ele>
        <time>2020-07-04T16:14:19Z</time>
      </trkpt>
      <trkpt lat="43.34635" lon="-1.74118">
        <ele>80.2</ele>
        <time>2020-07-04T16:14:21Z</time>
      </trkpt>
      <trkpt lat="43.34639" lon="-1.74132">
        <ele>79.5</ele>
        <time>2020-07-04T16:14:23Z</time>
      </trkpt>
      <trkpt lat="43.34631" lon="-1.74146">
        <ele>78.7</ele>
        <time>2020-07-04T16:14:25Z</time>
      </trkpt>
      <trkpt lat="43.3462" lon="-1.74161">
        <ele>77.9</ele>
        <time>2020-07-04T16:14:27Z</time>
      </trkpt>
      <trkpt lat="43.34608" lon="-1.74177">
        <ele>76.7</ele>
        <time>2020-07-04T16:14:29Z</time>
      </trkpt>
      <trkpt lat="43.34597" lon="-1.74195">
        <ele>75.5</ele>
        <time>2020-07-04T16:14:31Z</time>
      </trkpt>
      <trkpt lat="43.34592" lon="-1.74206">
        <ele>75</ele>
        <time>2020-07-04T16:14:32Z</time>
      </trkpt>
      <trkpt lat="43.34588" lon="-1.74218">
        <ele>74.2</ele>
        <time>2020-07-04T16:14:33Z</time>
      </trkpt>
      <trkpt lat="43.34587" lon="-1.7423">
        <ele>73.5</ele>
        <time>2020-07-04T16:14:34Z</time>
      </trkpt>
      <trkpt lat="43.34587" lon="-1.74254">
        <ele>72.1</ele>
        <time>2020-07-04T16:14:36Z</time>
      </trkpt>
      <trkpt lat="43.34589" lon="-1.74276">
        <ele>70.8</ele>
        <time>2020-07-04T16:14:38Z</time>
      </trkpt>
      <trkpt lat="43.34591" lon="-1.74293">
        <ele>69.6</ele>
        <time>2020-07-04T16:14:40Z</time>
      </trkpt>
      <trkpt lat="43.34593" lon="-1.74308">
        <ele>68.6</ele>
        <time>2020-07-04T16:14:42Z</time>
      </trkpt>
      <trkpt lat="43.34595" lon="-1.74322">
        <ele>67.8</ele>
        <time>2020-07-04T16:14:44Z</time>
      </trkpt>
      <trkpt lat="43.34596" lon="-1.74336">
        <ele>67.2</ele>
        <time>2020-07-04T16:14:46Z</time>
      </trkpt>
      <trkpt lat="43.34598" lon="-1.7435">
        <ele>66.8</ele>
        <time>2020-07-04T16:14:48Z</time>
      </trkpt>
      <trkpt lat="43.34599" lon="-1.74362">
        <ele>66.5</ele>
        <time>2020-07-04T16:14:50Z</time>
      </trkpt>
      <trkpt lat="43.346" lon="-1.7438">
        <ele>66.5</ele>
        <time>2020-07-04T16:14:53Z</time>
      </trkpt>
      <trkpt lat="43.34602" lon="-1.74395">
        <ele>66.6</ele>
        <time>2020-07-04T16:14:56Z</time>
      </trkpt>
      <trkpt lat="43.34603" lon="-1.74409">
        <ele>66.8</ele>
        <time>2020-07-04T16:14:59Z</time>
      </trkpt>
      <trkpt lat="43.34604" lon="-1.74423">
        <ele>67.1</ele>
        <time>2020-07-04T16:15:03Z</time>
      </trkpt>
      <trkpt lat="43.34604" lon="-1.74437">
        <ele>67.4</ele>
        <time>2020-07-04T16:15:07Z</time>
      </trkpt>
      <trkpt lat="43.34613" lon="-1.74443">
        <ele>68.6</ele>
        <time>2020-07-04T16:15:48Z</time>
      </trkpt>
      <trkpt lat="43.34624" lon="-1.74446">
        <ele>68.7</ele>
        <time>2020-07-04T16:15:52Z</time>
      </trkpt>
      <trkpt lat="43.34633" lon="-1.7445">
        <ele>69</ele>
        <time>2020-07-04T16:15:55Z</time>
      </trkpt>
      <trkpt lat="43.34644" lon="-1.74454">
        <ele>69.4</ele>
        <time>2020-07-04T16:15:58Z</time>
      </trkpt>
      <trkpt lat="43.34654" lon="-1.74459">
        <ele>70.2</ele>
        <time>2020-07-04T16:16:01Z</time>
      </trkpt>
      <trkpt lat="43.34665" lon="-1.74463">
        <ele>71</ele>
        <time>2020-07-04T16:16:04Z</time>
      </trkpt>
      <trkpt lat="43.34675" lon="-1.74466">
        <ele>71.6</ele>
        <time>2020-07-04T16:16:07Z</time>
      </trkpt>
      <trkpt lat="43.34684" lon="-1.74469">
        <ele>72.4</ele>
        <time>2020-07-04T16:16:10Z</time>
      </trkpt>
      <trkpt lat="43.34695" lon="-1.74469">
        <ele>73.7</ele>
        <time>2020-07-04T16:16:14Z</time>
      </trkpt>
      <trkpt lat="43.34706" lon="-1.74469">
        <ele>75.8</ele>
        <time>2020-07-04T16:16:18Z</time>
      </trkpt>
      <trkpt lat="43.34716" lon="-1.74467">
        <ele>77.5</ele>
        <time>2020-07-04T16:16:22Z</time>
      </trkpt>
      <trkpt lat="43.34727" lon="-1.74462">
        <ele>79.1</ele>
        <time>2020-07-04T16:16:26Z</time>
      </trkpt>
      <trkpt lat="43.34735" lon="-1.74454">
        <ele>80.1</ele>
        <time>2020-07-04T16:16:29Z</time>
      </trkpt>
      <trkpt lat="43.34743" lon="-1.74443">
        <ele>81.4</ele>
        <time>2020-07-04T16:16:33Z</time>
      </trkpt>
      <trkpt lat="43.34749" lon="-1.74433">
        <ele>82.7</ele>
        <time>2020-07-04T16:16:37Z</time>
      </trkpt>
      <trkpt lat="43.34757" lon="-1.74425">
        <ele>84</ele>
        <time>2020-07-04T16:16:41Z</time>
      </trkpt>
      <trkpt lat="43.34763" lon="-1.74416">
        <ele>85.5</ele>
        <time>2020-07-04T16:16:46Z</time>
      </trkpt>
      <trkpt lat="43.34771" lon="-1.74405">
        <ele>87.2</ele>
        <time>2020-07-04T16:16:53Z</time>
      </trkpt>
      <trkpt lat="43.34778" lon="-1.74393">
        <ele>87.9</ele>
        <time>2020-07-04T16:16:57Z</time>
      </trkpt>
      <trkpt lat="43.34782" lon="-1.7438">
        <ele>88.5</ele>
        <time>2020-07-04T16:17:01Z</time>
      </trkpt>
      <trkpt lat="43.34786" lon="-1.74369">
        <ele>88.9</ele>
        <time>2020-07-04T16:17:05Z</time>
      </trkpt>
      <trkpt lat="43.34792" lon="-1.74357">
        <ele>89.2</ele>
        <time>2020-07-04T16:17:09Z</time>
      </trkpt>
      <trkpt lat="43.34797" lon="-1.74344">
        <ele>89.9</ele>
        <time>2020-07-04T16:17:14Z</time>
      </trkpt>
      <trkpt lat="43.34801" lon="-1.74331">
        <ele>91.1</ele>
        <time>2020-07-04T16:17:19Z</time>
      </trkpt>
      <trkpt lat="43.34804" lon="-1.74319">
        <ele>92</ele>
        <time>2020-07-04T16:17:23Z</time>
      </trkpt>
      <trkpt lat="43.34808" lon="-1.74307">
        <ele>92.7</ele>
        <time>2020-07-04T16:17:26Z</time>
      </trkpt>
      <trkpt lat="43.34813" lon="-1.74294">
        <ele>93.9</ele>
        <time>2020-07-04T16:17:30Z</time>
      </trkpt>
      <trkpt lat="43.34818" lon="-1.74281">
        <ele>95</ele>
        <time>2020-07-04T16:17:34Z</time>
      </trkpt>
      <trkpt lat="43.34822" lon="-1.74269">
        <ele>96.1</ele>
        <time>2020-07-04T16:17:39Z</time>
      </trkpt>
      <trkpt lat="43.34826" lon="-1.74257">
        <ele>99.2</ele>
        <time>2020-07-04T16:17:57Z</time>
      </trkpt>
      <trkpt lat="43.34833" lon="-1.74249">
        <ele>100.9</ele>
        <time>2020-07-04T16:19:17Z</time>
      </trkpt>
      <trkpt lat="43.34841" lon="-1.74255">
        <ele>100.8</ele>
        <time>2020-07-04T16:19:20Z</time>
      </trkpt>
      <trkpt lat="43.34849" lon="-1.74262">
        <ele>100.7</ele>
        <time>2020-07-04T16:19:23Z</time>
      </trkpt>
      <trkpt lat="43.34857" lon="-1.74268">
        <ele>100.7</ele>
        <time>2020-07-04T16:19:26Z</time>
      </trkpt>
      <trkpt lat="43.34866" lon="-1.74274">
        <ele>100.7</ele>
        <time>2020-07-04T16:19:30Z</time>
      </trkpt>
      <trkpt lat="43.34873" lon="-1.74282">
        <ele>100.5</ele>
        <time>2020-07-04T16:19:36Z</time>
      </trkpt>
      <trkpt lat="43.3488" lon="-1.74291">
        <ele>98.6</ele>
        <time>2020-07-04T16:19:53Z</time>
      </trkpt>
      <trkpt lat="43.34885" lon="-1.74302">
        <ele>98.2</ele>
        <time>2020-07-04T16:20:29Z</time>
      </trkpt>
      <trkpt lat="43.34892" lon="-1.74309">
        <ele>98.3</ele>
        <time>2020-07-04T16:20:40Z</time>
      </trkpt>
      <trkpt lat="43.34898" lon="-1.74324">
        <ele>98.4</ele>
        <time>2020-07-04T16:20:44Z</time>
      </trkpt>
      <trkpt lat="43.34903" lon="-1.74339">
        <ele>98.5</ele>
        <time>2020-07-04T16:20:47Z</time>
      </trkpt>
      <trkpt lat="43.34908" lon="-1.74351">
        <ele>98.6</ele>
        <time>2020-07-04T16:20:50Z</time>
      </trkpt>
      <trkpt lat="43.34915" lon="-1.74363">
        <ele>98.6</ele>
        <time>2020-07-04T16:20:53Z</time>
      </trkpt>
      <trkpt lat="43.34923" lon="-1.74374">
        <ele>99</ele>
        <time>2020-07-04T16:20:58Z</time>
      </trkpt>
      <trkpt lat="43.34928" lon="-1.74386">
        <ele>99.7</ele>
        <time>2020-07-04T16:21:03Z</time>
      </trkpt>
      <trkpt lat="43.34933" lon="-1.74396">
        <ele>100.7</ele>
        <time>2020-07-04T16:21:08Z</time>
      </trkpt>
      <trkpt lat="43.34939" lon="-1.74407">
        <ele>101.7</ele>
        <time>2020-07-04T16:21:12Z</time>
      </trkpt>
      <trkpt lat="43.34945" lon="-1.74416">
        <ele>102.8</ele>
        <time>2020-07-04T16:21:16Z</time>
      </trkpt>
      <trkpt lat="43.34952" lon="-1.74427">
        <ele>104.1</ele>
        <time>2020-07-04T16:21:21Z</time>
      </trkpt>
      <trkpt lat="43.34956" lon="-1.74438">
        <ele>107.6</ele>
        <time>2020-07-04T16:21:33Z</time>
      </trkpt>
      <trkpt lat="43.34962" lon="-1.74448">
        <ele>111</ele>
        <time>2020-07-04T16:22:17Z</time>
      </trkpt>
      <trkpt lat="43.34965" lon="-1.74462">
        <ele>111.1</ele>
        <time>2020-07-04T16:22:50Z</time>
      </trkpt>
      <trkpt lat="43.34968" lon="-1.74474">
        <ele>111.1</ele>
        <time>2020-07-04T16:22:52Z</time>
      </trkpt>
      <trkpt lat="43.34969" lon="-1.74488">
        <ele>111.1</ele>
        <time>2020-07-04T16:22:54Z</time>
      </trkpt>
      <trkpt lat="43.3497" lon="-1.74503">
        <ele>111</ele>
        <time>2020-07-04T16:22:56Z</time>
      </trkpt>
      <trkpt lat="43.34971" lon="-1.74518">
        <ele>111</ele>
        <time>2020-07-04T16:22:58Z</time>
      </trkpt>
      <trkpt lat="43.34972" lon="-1.74534">
        <ele>110.9</ele>
        <time>2020-07-04T16:23:01Z</time>
      </trkpt>
      <trkpt lat="43.3498" lon="-1.74544">
        <ele>110.7</ele>
        <time>2020-07-04T16:23:04Z</time>
      </trkpt>
      <trkpt lat="43.34988" lon="-1.74553">
        <ele>110.5</ele>
        <time>2020-07-04T16:23:09Z</time>
      </trkpt>
      <trkpt lat="43.34992" lon="-1.74568">
        <ele>110.3</ele>
        <time>2020-07-04T16:23:14Z</time>
      </trkpt>
      <trkpt lat="43.34995" lon="-1.74582">
        <ele>110.8</ele>
        <time>2020-07-04T16:23:18Z</time>
      </trkpt>
      <trkpt lat="43.35001" lon="-1.74594">
        <ele>111.1</ele>
        <time>2020-07-04T16:23:22Z</time>
      </trkpt>
      <trkpt lat="43.35008" lon="-1.74604">
        <ele>111.3</ele>
        <time>2020-07-04T16:23:26Z</time>
      </trkpt>
      <trkpt lat="43.35015" lon="-1.74613">
        <ele>111.5</ele>
        <time>2020-07-04T16:23:30Z</time>
      </trkpt>
      <trkpt lat="43.35022" lon="-1.74623">
        <ele>111.8</ele>
        <time>2020-07-04T16:23:34Z</time>
      </trkpt>
      <trkpt lat="43.35027" lon="-1.74634">
        <ele>112.1</ele>
        <time>2020-07-04T16:23:38Z</time>
      </trkpt>
      <trkpt lat="43.35033" lon="-1.74646">
        <ele>112.5</ele>
        <time>2020-07-04T16:23:42Z</time>
      </trkpt>
      <trkpt lat="43.3504" lon="-1.74658">
        <ele>112.9</ele>
        <time>2020-07-04T16:23:46Z</time>
      </trkpt>
      <trkpt lat="43.35046" lon="-1.7467">
        <ele>113.4</ele>
        <time>2020-07-04T16:23:50Z</time>
      </trkpt>
      <trkpt lat="43.35052" lon="-1.74682">
        <ele>113.8</ele>
        <time>2020-07-04T16:23:54Z</time>
      </trkpt>
      <trkpt lat="43.35058" lon="-1.74696">
        <ele>114.1</ele>
        <time>2020-07-04T16:23:58Z</time>
      </trkpt>
      <trkpt lat="43.35063" lon="-1.74711">
        <ele>114.4</ele>
        <time>2020-07-04T16:24:02Z</time>
      </trkpt>
      <trkpt lat="43.35067" lon="-1.74726">
        <ele>114.7</ele>
        <time>2020-07-04T16:24:06Z</time>
      </trkpt>
      <trkpt lat="43.35069" lon="-1.74738">
        <ele>115.1</ele>
        <time>2020-07-04T16:24:09Z</time>
      </trkpt>
      <trkpt lat="43.35072" lon="-1.74753">
        <ele>115.7</ele>
        <time>2020-07-04T16:24:13Z</time>
      </trkpt>
      <trkpt lat="43.35075" lon="-1.74769">
        <ele>116.3</ele>
        <time>2020-07-04T16:24:17Z</time>
      </trkpt>
      <trkpt lat="43.35077" lon="-1.74782">
        <ele>116.6</ele>
        <time>2020-07-04T16:24:20Z</time>
      </trkpt>
      <trkpt lat="43.3508" lon="-1.74796">
        <ele>117.1</ele>
        <time>2020-07-04T16:24:24Z</time>
      </trkpt>
      <trkpt lat="43.35082" lon="-1.74809">
        <ele>117.8</ele>
        <time>2020-07-04T16:24:29Z</time>
      </trkpt>
      <trkpt lat="43.35084" lon="-1.74821">
        <ele>118.6</ele>
        <time>2020-07-04T16:24:33Z</time>
      </trkpt>
      <trkpt lat="43.35085" lon="-1.74835">
        <ele>119.2</ele>
        <time>2020-07-04T16:24:37Z</time>
      </trkpt>
      <trkpt lat="43.35087" lon="-1.74849">
        <ele>119.8</ele>
        <time>2020-07-04T16:24:41Z</time>
      </trkpt>
      <trkpt lat="43.3509" lon="-1.74863">
        <ele>120.6</ele>
        <time>2020-07-04T16:24:45Z</time>
      </trkpt>
      <trkpt lat="43.35092" lon="-1.74878">
        <ele>121.2</ele>
        <time>2020-07-04T16:24:49Z</time>
      </trkpt>
      <trkpt lat="43.35093" lon="-1.74891">
        <ele>122.1</ele>
        <time>2020-07-04T16:24:53Z</time>
      </trkpt>
      <trkpt lat="43.35095" lon="-1.74905">
        <ele>123.1</ele>
        <time>2020-07-04T16:24:57Z</time>
      </trkpt>
      <trkpt lat="43.35097" lon="-1.74918">
        <ele>123.8</ele>
        <time>2020-07-04T16:25:01Z</time>
      </trkpt>
      <trkpt lat="43.35098" lon="-1.74933">
        <ele>124.9</ele>
        <time>2020-07-04T16:25:06Z</time>
      </trkpt>
      <trkpt lat="43.351" lon="-1.74947">
        <ele>126.3</ele>
        <time>2020-07-04T16:25:11Z</time>
      </trkpt>
      <trkpt lat="43.35101" lon="-1.74962">
        <ele>127.4</ele>
        <time>2020-07-04T16:25:16Z</time>
      </trkpt>
      <trkpt lat="43.35102" lon="-1.74976">
        <ele>128.5</ele>
        <time>2020-07-04T16:25:21Z</time>
      </trkpt>
      <trkpt lat="43.35104" lon="-1.74989">
        <ele>129.8</ele>
        <time>2020-07-04T16:25:26Z</time>
      </trkpt>
      <trkpt lat="43.35109" lon="-1.75001">
        <ele>131.2</ele>
        <time>2020-07-04T16:25:32Z</time>
      </trkpt>
      <trkpt lat="43.35115" lon="-1.75012">
        <ele>132.4</ele>
        <time>2020-07-04T16:25:39Z</time>
      </trkpt>
      <trkpt lat="43.3512" lon="-1.75023">
        <ele>133.7</ele>
        <time>2020-07-04T16:25:45Z</time>
      </trkpt>
      <trkpt lat="43.35125" lon="-1.75036">
        <ele>135.5</ele>
        <time>2020-07-04T16:25:52Z</time>
      </trkpt>
      <trkpt lat="43.35131" lon="-1.75047">
        <ele>137</ele>
        <time>2020-07-04T16:25:58Z</time>
      </trkpt>
      <trkpt lat="43.35136" lon="-1.75058">
        <ele>138.3</ele>
        <time>2020-07-04T16:26:03Z</time>
      </trkpt>
      <trkpt lat="43.35142" lon="-1.7507">
        <ele>139.4</ele>
        <time>2020-07-04T16:26:08Z</time>
      </trkpt>
      <trkpt lat="43.35148" lon="-1.7508">
        <ele>140.5</ele>
        <time>2020-07-04T16:26:12Z</time>
      </trkpt>
      <trkpt lat="43.35154" lon="-1.7509">
        <ele>142.1</ele>
        <time>2020-07-04T16:26:19Z</time>
      </trkpt>
      <trkpt lat="43.35157" lon="-1.75102">
        <ele>144.9</ele>
        <time>2020-07-04T16:26:54Z</time>
      </trkpt>
      <trkpt lat="43.35165" lon="-1.75105">
        <ele>145.5</ele>
        <time>2020-07-04T16:27:40Z</time>
      </trkpt>
      <trkpt lat="43.35175" lon="-1.75111">
        <ele>145.6</ele>
        <time>2020-07-04T16:28:09Z</time>
      </trkpt>
      <trkpt lat="43.35183" lon="-1.75118">
        <ele>145.6</ele>
        <time>2020-07-04T16:28:13Z</time>
      </trkpt>
      <trkpt lat="43.3519" lon="-1.75126">
        <ele>145.6</ele>
        <time>2020-07-04T16:28:16Z</time>
      </trkpt>
      <trkpt lat="43.35198" lon="-1.75135">
        <ele>143.9</ele>
        <time>2020-07-04T16:28:53Z</time>
      </trkpt>
      <trkpt lat="43.35204" lon="-1.75143">
        <ele>143.9</ele>
        <time>2020-07-04T16:28:56Z</time>
      </trkpt>
      <trkpt lat="43.35212" lon="-1.7515">
        <ele>143.8</ele>
        <time>2020-07-04T16:28:58Z</time>
      </trkpt>
      <trkpt lat="43.35221" lon="-1.75158">
        <ele>143.8</ele>
        <time>2020-07-04T16:29:00Z</time>
      </trkpt>
      <trkpt lat="43.3523" lon="-1.75167">
        <ele>143.6</ele>
        <time>2020-07-04T16:29:02Z</time>
      </trkpt>
      <trkpt lat="43.35238" lon="-1.75178">
        <ele>143.2</ele>
        <time>2020-07-04T16:29:04Z</time>
      </trkpt>
      <trkpt lat="43.35247" lon="-1.75189">
        <ele>142.7</ele>
        <time>2020-07-04T16:29:06Z</time>
      </trkpt>
      <trkpt lat="43.35257" lon="-1.75197">
        <ele>142.3</ele>
        <time>2020-07-04T16:29:08Z</time>
      </trkpt>
      <trkpt lat="43.35267" lon="-1.75208">
        <ele>141.9</ele>
        <time>2020-07-04T16:29:10Z</time>
      </trkpt>
      <trkpt lat="43.35278" lon="-1.7522">
        <ele>141.2</ele>
        <time>2020-07-04T16:29:12Z</time>
      </trkpt>
      <trkpt lat="43.3529" lon="-1.75231">
        <ele>140.5</ele>
        <time>2020-07-04T16:29:14Z</time>
      </trkpt>
      <trkpt lat="43.35303" lon="-1.7524">
        <ele>139.5</ele>
        <time>2020-07-04T16:29:16Z</time>
      </trkpt>
      <trkpt lat="43.35316" lon="-1.75248">
        <ele>138.3</ele>
        <time>2020-07-04T16:29:18Z</time>
      </trkpt>
      <trkpt lat="43.35331" lon="-1.75251">
        <ele>137</ele>
        <time>2020-07-04T16:29:20Z</time>
      </trkpt>
      <trkpt lat="43.35345" lon="-1.75253">
        <ele>135.5</ele>
        <time>2020-07-04T16:29:22Z</time>
      </trkpt>
      <trkpt lat="43.3536" lon="-1.75255">
        <ele>133.9</ele>
        <time>2020-07-04T16:29:24Z</time>
      </trkpt>
      <trkpt lat="43.35374" lon="-1.75253">
        <ele>132.3</ele>
        <time>2020-07-04T16:29:26Z</time>
      </trkpt>
      <trkpt lat="43.35388" lon="-1.75254">
        <ele>130.5</ele>
        <time>2020-07-04T16:29:28Z</time>
      </trkpt>
      <trkpt lat="43.35399" lon="-1.75264">
        <ele>128.8</ele>
        <time>2020-07-04T16:29:30Z</time>
      </trkpt>
      <trkpt lat="43.3541" lon="-1.75275">
        <ele>127.3</ele>
        <time>2020-07-04T16:29:32Z</time>
      </trkpt>
      <trkpt lat="43.35421" lon="-1.75287">
        <ele>126</ele>
        <time>2020-07-04T16:29:34Z</time>
      </trkpt>
      <trkpt lat="43.35432" lon="-1.75296">
        <ele>124.7</ele>
        <time>2020-07-04T16:29:36Z</time>
      </trkpt>
      <trkpt lat="43.35444" lon="-1.75304">
        <ele>123.5</ele>
        <time>2020-07-04T16:29:38Z</time>
      </trkpt>
      <trkpt lat="43.35454" lon="-1.75312">
        <ele>122.5</ele>
        <time>2020-07-04T16:29:40Z</time>
      </trkpt>
      <trkpt lat="43.35462" lon="-1.75321">
        <ele>121.6</ele>
        <time>2020-07-04T16:29:42Z</time>
      </trkpt>
      <trkpt lat="43.3547" lon="-1.7533">
        <ele>120.8</ele>
        <time>2020-07-04T16:29:44Z</time>
      </trkpt>
      <trkpt lat="43.3548" lon="-1.75338">
        <ele>120.1</ele>
        <time>2020-07-04T16:29:46Z</time>
      </trkpt>
      <trkpt lat="43.35489" lon="-1.75346">
        <ele>119.5</ele>
        <time>2020-07-04T16:29:48Z</time>
      </trkpt>
      <trkpt lat="43.35496" lon="-1.75353">
        <ele>119</ele>
        <time>2020-07-04T16:29:50Z</time>
      </trkpt>
      <trkpt lat="43.35503" lon="-1.75361">
        <ele>115.7</ele>
        <time>2020-07-04T16:30:11Z</time>
      </trkpt>
      <trkpt lat="43.35506" lon="-1.75372">
        <ele>114.8</ele>
        <time>2020-07-04T16:30:28Z</time>
      </trkpt>
      <trkpt lat="43.35511" lon="-1.75384">
        <ele>114.9</ele>
        <time>2020-07-04T16:30:31Z</time>
      </trkpt>
      <trkpt lat="43.35515" lon="-1.75395">
        <ele>115</ele>
        <time>2020-07-04T16:30:36Z</time>
      </trkpt>
      <trkpt lat="43.35522" lon="-1.75406">
        <ele>115.2</ele>
        <time>2020-07-04T16:30:40Z</time>
      </trkpt>
      <trkpt lat="43.3553" lon="-1.75418">
        <ele>115.4</ele>
        <time>2020-07-04T16:30:43Z</time>
      </trkpt>
      <trkpt lat="43.35536" lon="-1.75428">
        <ele>115.6</ele>
        <time>2020-07-04T16:30:46Z</time>
      </trkpt>
      <trkpt lat="43.35541" lon="-1.75439">
        <ele>115.9</ele>
        <time>2020-07-04T16:30:49Z</time>
      </trkpt>
      <trkpt lat="43.35545" lon="-1.75457">
        <ele>116.1</ele>
        <time>2020-07-04T16:30:52Z</time>
      </trkpt>
      <trkpt lat="43.35548" lon="-1.75475">
        <ele>116.4</ele>
        <time>2020-07-04T16:30:55Z</time>
      </trkpt>
      <trkpt lat="43.3555" lon="-1.75487">
        <ele>116.5</ele>
        <time>2020-07-04T16:30:57Z</time>
      </trkpt>
      <trkpt lat="43.35553" lon="-1.755">
        <ele>116.7</ele>
        <time>2020-07-04T16:30:59Z</time>
      </trkpt>
      <trkpt lat="43.35555" lon="-1.75517">
        <ele>117</ele>
        <time>2020-07-04T16:31:02Z</time>
      </trkpt>
      <trkpt lat="43.35558" lon="-1.75535">
        <ele>117.2</ele>
        <time>2020-07-04T16:31:05Z</time>
      </trkpt>
      <trkpt lat="43.35561" lon="-1.75551">
        <ele>117.3</ele>
        <time>2020-07-04T16:31:08Z</time>
      </trkpt>
      <trkpt lat="43.35565" lon="-1.75567">
        <ele>117.5</ele>
        <time>2020-07-04T16:31:11Z</time>
      </trkpt>
      <trkpt lat="43.35568" lon="-1.75582">
        <ele>117.7</ele>
        <time>2020-07-04T16:31:14Z</time>
      </trkpt>
      <trkpt lat="43.35571" lon="-1.75596">
        <ele>118</ele>
        <time>2020-07-04T16:31:17Z</time>
      </trkpt>
      <trkpt lat="43.35573" lon="-1.75609">
        <ele>118.4</ele>
        <time>2020-07-04T16:31:20Z</time>
      </trkpt>
      <trkpt lat="43.35576" lon="-1.75623">
        <ele>119.1</ele>
        <time>2020-07-04T16:31:23Z</time>
      </trkpt>
      <trkpt lat="43.35578" lon="-1.75637">
        <ele>119.8</ele>
        <time>2020-07-04T16:31:26Z</time>
      </trkpt>
      <trkpt lat="43.3558" lon="-1.75652">
        <ele>120.4</ele>
        <time>2020-07-04T16:31:29Z</time>
      </trkpt>
      <trkpt lat="43.35582" lon="-1.75671">
        <ele>120.9</ele>
        <time>2020-07-04T16:31:32Z</time>
      </trkpt>
      <trkpt lat="43.35584" lon="-1.75689">
        <ele>121.3</ele>
        <time>2020-07-04T16:31:35Z</time>
      </trkpt>
      <trkpt lat="43.35586" lon="-1.75706">
        <ele>121.7</ele>
        <time>2020-07-04T16:31:38Z</time>
      </trkpt>
      <trkpt lat="43.35588" lon="-1.75724">
        <ele>122</ele>
        <time>2020-07-04T16:31:41Z</time>
      </trkpt>
      <trkpt lat="43.35589" lon="-1.75737">
        <ele>122.1</ele>
        <time>2020-07-04T16:31:43Z</time>
      </trkpt>
      <trkpt lat="43.35589" lon="-1.75755">
        <ele>122.3</ele>
        <time>2020-07-04T16:31:46Z</time>
      </trkpt>
      <trkpt lat="43.35591" lon="-1.75772">
        <ele>122.5</ele>
        <time>2020-07-04T16:31:49Z</time>
      </trkpt>
      <trkpt lat="43.35593" lon="-1.75786">
        <ele>122.5</ele>
        <time>2020-07-04T16:31:52Z</time>
      </trkpt>
      <trkpt lat="43.35599" lon="-1.75798">
        <ele>122.5</ele>
        <time>2020-07-04T16:31:55Z</time>
      </trkpt>
      <trkpt lat="43.35604" lon="-1.75812">
        <ele>122.6</ele>
        <time>2020-07-04T16:31:58Z</time>
      </trkpt>
      <trkpt lat="43.35607" lon="-1.75828">
        <ele>122.6</ele>
        <time>2020-07-04T16:32:01Z</time>
      </trkpt>
      <trkpt lat="43.35611" lon="-1.75843">
        <ele>122.7</ele>
        <time>2020-07-04T16:32:04Z</time>
      </trkpt>
      <trkpt lat="43.35612" lon="-1.75859">
        <ele>123</ele>
        <time>2020-07-04T16:32:07Z</time>
      </trkpt>
      <trkpt lat="43.35613" lon="-1.75873">
        <ele>123.3</ele>
        <time>2020-07-04T16:32:10Z</time>
      </trkpt>
      <trkpt lat="43.35617" lon="-1.75886">
        <ele>123.9</ele>
        <time>2020-07-04T16:32:14Z</time>
      </trkpt>
      <trkpt lat="43.35627" lon="-1.75889">
        <ele>125.5</ele>
        <time>2020-07-04T16:32:38Z</time>
      </trkpt>
      <trkpt lat="43.35636" lon="-1.75885">
        <ele>125.8</ele>
        <time>2020-07-04T16:32:41Z</time>
      </trkpt>
      <trkpt lat="43.35646" lon="-1.75881">
        <ele>125.9</ele>
        <time>2020-07-04T16:32:44Z</time>
      </trkpt>
      <trkpt lat="43.35658" lon="-1.75876">
        <ele>125.8</ele>
        <time>2020-07-04T16:32:47Z</time>
      </trkpt>
      <trkpt lat="43.3567" lon="-1.75872">
        <ele>125.6</ele>
        <time>2020-07-04T16:32:50Z</time>
      </trkpt>
      <trkpt lat="43.35681" lon="-1.75872">
        <ele>125.3</ele>
        <time>2020-07-04T16:32:53Z</time>
      </trkpt>
      <trkpt lat="43.35692" lon="-1.75877">
        <ele>125</ele>
        <time>2020-07-04T16:32:56Z</time>
      </trkpt>
      <trkpt lat="43.35704" lon="-1.75884">
        <ele>124.8</ele>
        <time>2020-07-04T16:32:59Z</time>
      </trkpt>
      <trkpt lat="43.35716" lon="-1.75891">
        <ele>124.4</ele>
        <time>2020-07-04T16:33:02Z</time>
      </trkpt>
      <trkpt lat="43.35727" lon="-1.759">
        <ele>124</ele>
        <time>2020-07-04T16:33:05Z</time>
      </trkpt>
      <trkpt lat="43.35736" lon="-1.75908">
        <ele>123.5</ele>
        <time>2020-07-04T16:33:08Z</time>
      </trkpt>
      <trkpt lat="43.35745" lon="-1.75915">
        <ele>123</ele>
        <time>2020-07-04T16:33:11Z</time>
      </trkpt>
      <trkpt lat="43.35754" lon="-1.75922">
        <ele>122.6</ele>
        <time>2020-07-04T16:33:14Z</time>
      </trkpt>
      <trkpt lat="43.35764" lon="-1.75931">
        <ele>122</ele>
        <time>2020-07-04T16:33:17Z</time>
      </trkpt>
      <trkpt lat="43.35774" lon="-1.75937">
        <ele>121.5</ele>
        <time>2020-07-04T16:33:19Z</time>
      </trkpt>
      <trkpt lat="43.35786" lon="-1.75946">
        <ele>120.9</ele>
        <time>2020-07-04T16:33:21Z</time>
      </trkpt>
      <trkpt lat="43.35799" lon="-1.75951">
        <ele>119.9</ele>
        <time>2020-07-04T16:33:23Z</time>
      </trkpt>
      <trkpt lat="43.35815" lon="-1.75953">
        <ele>118.8</ele>
        <time>2020-07-04T16:33:25Z</time>
      </trkpt>
      <trkpt lat="43.35831" lon="-1.75955">
        <ele>117.7</ele>
        <time>2020-07-04T16:33:27Z</time>
      </trkpt>
      <trkpt lat="43.35848" lon="-1.75956">
        <ele>116.5</ele>
        <time>2020-07-04T16:33:29Z</time>
      </trkpt>
      <trkpt lat="43.35864" lon="-1.75957">
        <ele>115</ele>
        <time>2020-07-04T16:33:31Z</time>
      </trkpt>
      <trkpt lat="43.35881" lon="-1.7596">
        <ele>113.3</ele>
        <time>2020-07-04T16:33:33Z</time>
      </trkpt>
      <trkpt lat="43.35896" lon="-1.75963">
        <ele>111.6</ele>
        <time>2020-07-04T16:33:35Z</time>
      </trkpt>
      <trkpt lat="43.3591" lon="-1.75966">
        <ele>110</ele>
        <time>2020-07-04T16:33:37Z</time>
      </trkpt>
      <trkpt lat="43.35922" lon="-1.75969">
        <ele>108.6</ele>
        <time>2020-07-04T16:33:39Z</time>
      </trkpt>
      <trkpt lat="43.35932" lon="-1.75971">
        <ele>107.3</ele>
        <time>2020-07-04T16:33:41Z</time>
      </trkpt>
      <trkpt lat="43.35943" lon="-1.75973">
        <ele>105.5</ele>
        <time>2020-07-04T16:33:44Z</time>
      </trkpt>
      <trkpt lat="43.35953" lon="-1.75976">
        <ele>103.1</ele>
        <time>2020-07-04T16:33:48Z</time>
      </trkpt>
      <trkpt lat="43.35954" lon="-1.75989">
        <ele>101.6</ele>
        <time>2020-07-04T16:33:51Z</time>
      </trkpt>
      <trkpt lat="43.35954" lon="-1.76007">
        <ele>100.3</ele>
        <time>2020-07-04T16:33:54Z</time>
      </trkpt>
      <trkpt lat="43.35954" lon="-1.76021">
        <ele>99.3</ele>
        <time>2020-07-04T16:33:56Z</time>
      </trkpt>
      <trkpt lat="43.35954" lon="-1.76036">
        <ele>98.4</ele>
        <time>2020-07-04T16:33:58Z</time>
      </trkpt>
      <trkpt lat="43.35953" lon="-1.76052">
        <ele>97.5</ele>
        <time>2020-07-04T16:34:00Z</time>
      </trkpt>
      <trkpt lat="43.35953" lon="-1.76066">
        <ele>96.5</ele>
        <time>2020-07-04T16:34:02Z</time>
      </trkpt>
      <trkpt lat="43.35952" lon="-1.76081">
        <ele>95.4</ele>
        <time>2020-07-04T16:34:04Z</time>
      </trkpt>
      <trkpt lat="43.35952" lon="-1.76097">
        <ele>94.3</ele>
        <time>2020-07-04T16:34:06Z</time>
      </trkpt>
      <trkpt lat="43.35952" lon="-1.76113">
        <ele>93.2</ele>
        <time>2020-07-04T16:34:08Z</time>
      </trkpt>
      <trkpt lat="43.35951" lon="-1.7613">
        <ele>92.1</ele>
        <time>2020-07-04T16:34:10Z</time>
      </trkpt>
      <trkpt lat="43.35951" lon="-1.76148">
        <ele>90.9</ele>
        <time>2020-07-04T16:34:12Z</time>
      </trkpt>
      <trkpt lat="43.35951" lon="-1.76166">
        <ele>89.9</ele>
        <time>2020-07-04T16:34:14Z</time>
      </trkpt>
      <trkpt lat="43.3595" lon="-1.76184">
        <ele>88.9</ele>
        <time>2020-07-04T16:34:16Z</time>
      </trkpt>
      <trkpt lat="43.35949" lon="-1.76203">
        <ele>87.7</ele>
        <time>2020-07-04T16:34:18Z</time>
      </trkpt>
      <trkpt lat="43.3595" lon="-1.7622">
        <ele>86.6</ele>
        <time>2020-07-04T16:34:20Z</time>
      </trkpt>
      <trkpt lat="43.35949" lon="-1.76235">
        <ele>85.6</ele>
        <time>2020-07-04T16:34:22Z</time>
      </trkpt>
      <trkpt lat="43.35949" lon="-1.76248">
        <ele>84.6</ele>
        <time>2020-07-04T16:34:24Z</time>
      </trkpt>
      <trkpt lat="43.35949" lon="-1.76264">
        <ele>83.1</ele>
        <time>2020-07-04T16:34:27Z</time>
      </trkpt>
      <trkpt lat="43.35946" lon="-1.76277">
        <ele>73.2</ele>
        <time>2020-07-04T16:35:52Z</time>
      </trkpt>
      <trkpt lat="43.35947" lon="-1.76291">
        <ele>73.2</ele>
        <time>2020-07-04T16:35:57Z</time>
      </trkpt>
      <trkpt lat="43.35951" lon="-1.76306">
        <ele>73.1</ele>
        <time>2020-07-04T16:36:03Z</time>
      </trkpt>
      <trkpt lat="43.35946" lon="-1.76318">
        <ele>72.9</ele>
        <time>2020-07-04T16:36:06Z</time>
      </trkpt>
      <trkpt lat="43.35934" lon="-1.76326">
        <ele>72.7</ele>
        <time>2020-07-04T16:36:09Z</time>
      </trkpt>
      <trkpt lat="43.35926" lon="-1.76336">
        <ele>72.5</ele>
        <time>2020-07-04T16:36:11Z</time>
      </trkpt>
      <trkpt lat="43.35918" lon="-1.76347">
        <ele>72.2</ele>
        <time>2020-07-04T16:36:13Z</time>
      </trkpt>
      <trkpt lat="43.35913" lon="-1.76361">
        <ele>71.8</ele>
        <time>2020-07-04T16:36:15Z</time>
      </trkpt>
      <trkpt lat="43.35909" lon="-1.76376">
        <ele>71.4</ele>
        <time>2020-07-04T16:36:17Z</time>
      </trkpt>
      <trkpt lat="43.35905" lon="-1.7639">
        <ele>71</ele>
        <time>2020-07-04T16:36:19Z</time>
      </trkpt>
      <trkpt lat="43.35901" lon="-1.76403">
        <ele>70.6</ele>
        <time>2020-07-04T16:36:21Z</time>
      </trkpt>
      <trkpt lat="43.35898" lon="-1.76414">
        <ele>70.2</ele>
        <time>2020-07-04T16:36:23Z</time>
      </trkpt>
      <trkpt lat="43.35894" lon="-1.76429">
        <ele>69.5</ele>
        <time>2020-07-04T16:36:26Z</time>
      </trkpt>
      <trkpt lat="43.35893" lon="-1.76443">
        <ele>65.4</ele>
        <time>2020-07-04T16:37:01Z</time>
      </trkpt>
      <trkpt lat="43.35887" lon="-1.76457">
        <ele>65.1</ele>
        <time>2020-07-04T16:37:06Z</time>
      </trkpt>
      <trkpt lat="43.35882" lon="-1.76473">
        <ele>64.8</ele>
        <time>2020-07-04T16:37:09Z</time>
      </trkpt>
      <trkpt lat="43.35878" lon="-1.76485">
        <ele>64.6</ele>
        <time>2020-07-04T16:37:11Z</time>
      </trkpt>
      <trkpt lat="43.35876" lon="-1.76499">
        <ele>64.4</ele>
        <time>2020-07-04T16:37:13Z</time>
      </trkpt>
      <trkpt lat="43.35872" lon="-1.76517">
        <ele>63.9</ele>
        <time>2020-07-04T16:37:15Z</time>
      </trkpt>
      <trkpt lat="43.35868" lon="-1.76538">
        <ele>63.3</ele>
        <time>2020-07-04T16:37:17Z</time>
      </trkpt>
      <trkpt lat="43.35864" lon="-1.76558">
        <ele>62.5</ele>
        <time>2020-07-04T16:37:19Z</time>
      </trkpt>
      <trkpt lat="43.35861" lon="-1.76578">
        <ele>61.6</ele>
        <time>2020-07-04T16:37:21Z</time>
      </trkpt>
      <trkpt lat="43.35857" lon="-1.76596">
        <ele>60.8</ele>
        <time>2020-07-04T16:37:23Z</time>
      </trkpt>
      <trkpt lat="43.35854" lon="-1.76613">
        <ele>60</ele>
        <time>2020-07-04T16:37:25Z</time>
      </trkpt>
      <trkpt lat="43.3585" lon="-1.76632">
        <ele>59.1</ele>
        <time>2020-07-04T16:37:27Z</time>
      </trkpt>
      <trkpt lat="43.35847" lon="-1.76651">
        <ele>58.2</ele>
        <time>2020-07-04T16:37:29Z</time>
      </trkpt>
      <trkpt lat="43.35845" lon="-1.76668">
        <ele>57.5</ele>
        <time>2020-07-04T16:37:31Z</time>
      </trkpt>
      <trkpt lat="43.35843" lon="-1.76684">
        <ele>56.7</ele>
        <time>2020-07-04T16:37:33Z</time>
      </trkpt>
      <trkpt lat="43.35841" lon="-1.76701">
        <ele>56</ele>
        <time>2020-07-04T16:37:35Z</time>
      </trkpt>
      <trkpt lat="43.35837" lon="-1.76718">
        <ele>55.2</ele>
        <time>2020-07-04T16:37:37Z</time>
      </trkpt>
      <trkpt lat="43.35834" lon="-1.76736">
        <ele>54.3</ele>
        <time>2020-07-04T16:37:39Z</time>
      </trkpt>
      <trkpt lat="43.35834" lon="-1.76754">
        <ele>53.5</ele>
        <time>2020-07-04T16:37:41Z</time>
      </trkpt>
      <trkpt lat="43.35836" lon="-1.76775">
        <ele>52.7</ele>
        <time>2020-07-04T16:37:43Z</time>
      </trkpt>
      <trkpt lat="43.35838" lon="-1.76796">
        <ele>51.7</ele>
        <time>2020-07-04T16:37:45Z</time>
      </trkpt>
      <trkpt lat="43.35842" lon="-1.76816">
        <ele>50.8</ele>
        <time>2020-07-04T16:37:47Z</time>
      </trkpt>
      <trkpt lat="43.35846" lon="-1.76834">
        <ele>49.7</ele>
        <time>2020-07-04T16:37:49Z</time>
      </trkpt>
      <trkpt lat="43.3585" lon="-1.76849">
        <ele>48.5</ele>
        <time>2020-07-04T16:37:51Z</time>
      </trkpt>
      <trkpt lat="43.35853" lon="-1.76865">
        <ele>46.9</ele>
        <time>2020-07-04T16:37:54Z</time>
      </trkpt>
      <trkpt lat="43.35857" lon="-1.76879">
        <ele>44.9</ele>
        <time>2020-07-04T16:37:58Z</time>
      </trkpt>
      <trkpt lat="43.35859" lon="-1.76892">
        <ele>42.4</ele>
        <time>2020-07-04T16:38:05Z</time>
      </trkpt>
      <trkpt lat="43.35864" lon="-1.76904">
        <ele>39.9</ele>
        <time>2020-07-04T16:38:16Z</time>
      </trkpt>
      <trkpt lat="43.3587" lon="-1.76917">
        <ele>39.4</ele>
        <time>2020-07-04T16:38:19Z</time>
      </trkpt>
      <trkpt lat="43.35882" lon="-1.76953">
        <ele>38</ele>
        <time>2020-07-04T16:38:27Z</time>
      </trkpt>
      <trkpt lat="43.35886" lon="-1.76965">
        <ele>34.1</ele>
        <time>2020-07-04T16:39:20Z</time>
      </trkpt>
      <trkpt lat="43.35889" lon="-1.76977">
        <ele>34</ele>
        <time>2020-07-04T16:39:28Z</time>
      </trkpt>
      <trkpt lat="43.35893" lon="-1.76991">
        <ele>33.2</ele>
        <time>2020-07-04T16:39:37Z</time>
      </trkpt>
      <trkpt lat="43.35896" lon="-1.77003">
        <ele>33</ele>
        <time>2020-07-04T16:39:40Z</time>
      </trkpt>
      <trkpt lat="43.35898" lon="-1.77019">
        <ele>32.8</ele>
        <time>2020-07-04T16:39:43Z</time>
      </trkpt>
      <trkpt lat="43.35899" lon="-1.77036">
        <ele>32.4</ele>
        <time>2020-07-04T16:39:46Z</time>
      </trkpt>
      <trkpt lat="43.35901" lon="-1.77054">
        <ele>32.2</ele>
        <time>2020-07-04T16:39:49Z</time>
      </trkpt>
      <trkpt lat="43.35902" lon="-1.77068">
        <ele>32</ele>
        <time>2020-07-04T16:39:51Z</time>
      </trkpt>
      <trkpt lat="43.35902" lon="-1.77083">
        <ele>31.9</ele>
        <time>2020-07-04T16:39:53Z</time>
      </trkpt>
      <trkpt lat="43.35902" lon="-1.77097">
        <ele>31.5</ele>
        <time>2020-07-04T16:39:55Z</time>
      </trkpt>
      <trkpt lat="43.35903" lon="-1.77114">
        <ele>30.8</ele>
        <time>2020-07-04T16:39:58Z</time>
      </trkpt>
      <trkpt lat="43.3591" lon="-1.77122">
        <ele>29.6</ele>
        <time>2020-07-04T16:40:03Z</time>
      </trkpt>
      <trkpt lat="43.35919" lon="-1.77129">
        <ele>25.3</ele>
        <time>2020-07-04T16:40:27Z</time>
      </trkpt>
      <trkpt lat="43.35927" lon="-1.77135">
        <ele>24.9</ele>
        <time>2020-07-04T16:40:32Z</time>
      </trkpt>
      <trkpt lat="43.35937" lon="-1.77138">
        <ele>24.6</ele>
        <time>2020-07-04T16:40:38Z</time>
      </trkpt>
      <trkpt lat="43.35945" lon="-1.77146">
        <ele>24.4</ele>
        <time>2020-07-04T16:40:43Z</time>
      </trkpt>
      <trkpt lat="43.35953" lon="-1.77154">
        <ele>24.1</ele>
        <time>2020-07-04T16:40:53Z</time>
      </trkpt>
      <trkpt lat="43.35963" lon="-1.77154">
        <ele>24.1</ele>
        <time>2020-07-04T16:41:01Z</time>
      </trkpt>
      <trkpt lat="43.35972" lon="-1.77155">
        <ele>24.2</ele>
        <time>2020-07-04T16:41:04Z</time>
      </trkpt>
      <trkpt lat="43.35979" lon="-1.77166">
        <ele>24.2</ele>
        <time>2020-07-04T16:41:07Z</time>
      </trkpt>
      <trkpt lat="43.35984" lon="-1.77178">
        <ele>24.1</ele>
        <time>2020-07-04T16:41:10Z</time>
      </trkpt>
      <trkpt lat="43.35993" lon="-1.77188">
        <ele>24</ele>
        <time>2020-07-04T16:41:13Z</time>
      </trkpt>
      <trkpt lat="43.36005" lon="-1.77198">
        <ele>23.9</ele>
        <time>2020-07-04T16:41:16Z</time>
      </trkpt>
      <trkpt lat="43.36013" lon="-1.77204">
        <ele>23.8</ele>
        <time>2020-07-04T16:41:18Z</time>
      </trkpt>
      <trkpt lat="43.36021" lon="-1.77211">
        <ele>23.8</ele>
        <time>2020-07-04T16:41:20Z</time>
      </trkpt>
      <trkpt lat="43.36031" lon="-1.77221">
        <ele>23.8</ele>
        <time>2020-07-04T16:41:23Z</time>
      </trkpt>
      <trkpt lat="43.36039" lon="-1.77227">
        <ele>23.7</ele>
        <time>2020-07-04T16:41:25Z</time>
      </trkpt>
      <trkpt lat="43.36047" lon="-1.77233">
        <ele>23.7</ele>
        <time>2020-07-04T16:41:27Z</time>
      </trkpt>
      <trkpt lat="43.36056" lon="-1.7724">
        <ele>23.7</ele>
        <time>2020-07-04T16:41:29Z</time>
      </trkpt>
      <trkpt lat="43.36066" lon="-1.77246">
        <ele>23.6</ele>
        <time>2020-07-04T16:41:31Z</time>
      </trkpt>
      <trkpt lat="43.36074" lon="-1.77252">
        <ele>23.6</ele>
        <time>2020-07-04T16:41:33Z</time>
      </trkpt>
      <trkpt lat="43.36084" lon="-1.77257">
        <ele>23.6</ele>
        <time>2020-07-04T16:41:35Z</time>
      </trkpt>
      <trkpt lat="43.36093" lon="-1.77262">
        <ele>23.6</ele>
        <time>2020-07-04T16:41:37Z</time>
      </trkpt>
      <trkpt lat="43.36103" lon="-1.77267">
        <ele>23.6</ele>
        <time>2020-07-04T16:41:39Z</time>
      </trkpt>
      <trkpt lat="43.36111" lon="-1.77272">
        <ele>23.7</ele>
        <time>2020-07-04T16:41:41Z</time>
      </trkpt>
      <trkpt lat="43.36122" lon="-1.77278">
        <ele>23.7</ele>
        <time>2020-07-04T16:41:44Z</time>
      </trkpt>
      <trkpt lat="43.36132" lon="-1.77284">
        <ele>23.7</ele>
        <time>2020-07-04T16:41:47Z</time>
      </trkpt>
      <trkpt lat="43.36141" lon="-1.7729">
        <ele>23.6</ele>
        <time>2020-07-04T16:41:50Z</time>
      </trkpt>
      <trkpt lat="43.3615" lon="-1.77296">
        <ele>23.6</ele>
        <time>2020-07-04T16:41:53Z</time>
      </trkpt>
      <trkpt lat="43.36161" lon="-1.773">
        <ele>23.6</ele>
        <time>2020-07-04T16:41:57Z</time>
      </trkpt>
      <trkpt lat="43.36172" lon="-1.77307">
        <ele>23.6</ele>
        <time>2020-07-04T16:42:01Z</time>
      </trkpt>
      <trkpt lat="43.3618" lon="-1.77313">
        <ele>23.6</ele>
        <time>2020-07-04T16:42:04Z</time>
      </trkpt>
      <trkpt lat="43.36191" lon="-1.77319">
        <ele>23.6</ele>
        <time>2020-07-04T16:42:08Z</time>
      </trkpt>
      <trkpt lat="43.362" lon="-1.77324">
        <ele>23.6</ele>
        <time>2020-07-04T16:42:11Z</time>
      </trkpt>
      <trkpt lat="43.36209" lon="-1.77328">
        <ele>23.7</ele>
        <time>2020-07-04T16:42:14Z</time>
      </trkpt>
      <trkpt lat="43.3622" lon="-1.77331">
        <ele>23.8</ele>
        <time>2020-07-04T16:42:17Z</time>
      </trkpt>
      <trkpt lat="43.36233" lon="-1.77332">
        <ele>23.8</ele>
        <time>2020-07-04T16:42:20Z</time>
      </trkpt>
      <trkpt lat="43.36242" lon="-1.7733">
        <ele>23.9</ele>
        <time>2020-07-04T16:42:22Z</time>
      </trkpt>
      <trkpt lat="43.36255" lon="-1.77323">
        <ele>23.9</ele>
        <time>2020-07-04T16:42:25Z</time>
      </trkpt>
      <trkpt lat="43.36267" lon="-1.77316">
        <ele>24</ele>
        <time>2020-07-04T16:42:28Z</time>
      </trkpt>
      <trkpt lat="43.36278" lon="-1.77309">
        <ele>24</ele>
        <time>2020-07-04T16:42:31Z</time>
      </trkpt>
      <trkpt lat="43.36286" lon="-1.77302">
        <ele>23.9</ele>
        <time>2020-07-04T16:42:35Z</time>
      </trkpt>
      <trkpt lat="43.36295" lon="-1.77297">
        <ele>23.9</ele>
        <time>2020-07-04T16:43:02Z</time>
      </trkpt>
      <trkpt lat="43.36304" lon="-1.77292">
        <ele>23.9</ele>
        <time>2020-07-04T16:43:06Z</time>
      </trkpt>
      <trkpt lat="43.36314" lon="-1.77284">
        <ele>23.9</ele>
        <time>2020-07-04T16:43:09Z</time>
      </trkpt>
      <trkpt lat="43.36324" lon="-1.77275">
        <ele>23.9</ele>
        <time>2020-07-04T16:43:12Z</time>
      </trkpt>
      <trkpt lat="43.36334" lon="-1.77266">
        <ele>24</ele>
        <time>2020-07-04T16:43:15Z</time>
      </trkpt>
      <trkpt lat="43.36342" lon="-1.77257">
        <ele>24</ele>
        <time>2020-07-04T16:43:18Z</time>
      </trkpt>
      <trkpt lat="43.36351" lon="-1.7724">
        <ele>22.1</ele>
        <time>2020-07-04T16:49:28Z</time>
      </trkpt>
      <trkpt lat="43.3636" lon="-1.77231">
        <ele>22.1</ele>
        <time>2020-07-04T16:49:34Z</time>
      </trkpt>
      <trkpt lat="43.36366" lon="-1.77223">
        <ele>22.1</ele>
        <time>2020-07-04T16:49:38Z</time>
      </trkpt>
      <trkpt lat="43.36373" lon="-1.77211">
        <ele>22</ele>
        <time>2020-07-04T16:49:43Z</time>
      </trkpt>
      <trkpt lat="43.3638" lon="-1.77199">
        <ele>22</ele>
        <time>2020-07-04T16:49:48Z</time>
      </trkpt>
      <trkpt lat="43.36386" lon="-1.77188">
        <ele>21.9</ele>
        <time>2020-07-04T16:49:53Z</time>
      </trkpt>
      <trkpt lat="43.36391" lon="-1.77179">
        <ele>21.1</ele>
        <time>2020-07-04T16:51:44Z</time>
      </trkpt>
      <trkpt lat="43.36396" lon="-1.77165">
        <ele>21</ele>
        <time>2020-07-04T16:51:48Z</time>
      </trkpt>
      <trkpt lat="43.36401" lon="-1.77151">
        <ele>20.9</ele>
        <time>2020-07-04T16:51:51Z</time>
      </trkpt>
      <trkpt lat="43.36407" lon="-1.77134">
        <ele>20.8</ele>
        <time>2020-07-04T16:51:54Z</time>
      </trkpt>
      <trkpt lat="43.36413" lon="-1.77118">
        <ele>20.7</ele>
        <time>2020-07-04T16:51:57Z</time>
      </trkpt>
      <trkpt lat="43.36418" lon="-1.77101">
        <ele>20.6</ele>
        <time>2020-07-04T16:52:00Z</time>
      </trkpt>
      <trkpt lat="43.36424" lon="-1.77085">
        <ele>20.5</ele>
        <time>2020-07-04T16:52:03Z</time>
      </trkpt>
      <trkpt lat="43.36429" lon="-1.77071">
        <ele>20.5</ele>
        <time>2020-07-04T16:52:06Z</time>
      </trkpt>
      <trkpt lat="43.36435" lon="-1.77059">
        <ele>20.4</ele>
        <time>2020-07-04T16:52:09Z</time>
      </trkpt>
      <trkpt lat="43.36441" lon="-1.77048">
        <ele>20.3</ele>
        <time>2020-07-04T16:52:12Z</time>
      </trkpt>
      <trkpt lat="43.36447" lon="-1.77037">
        <ele>20.2</ele>
        <time>2020-07-04T16:52:16Z</time>
      </trkpt>
      <trkpt lat="43.36455" lon="-1.77028">
        <ele>20</ele>
        <time>2020-07-04T16:52:45Z</time>
      </trkpt>
      <trkpt lat="43.36465" lon="-1.7702">
        <ele>19.9</ele>
        <time>2020-07-04T16:52:49Z</time>
      </trkpt>
      <trkpt lat="43.36475" lon="-1.77012">
        <ele>19.8</ele>
        <time>2020-07-04T16:52:52Z</time>
      </trkpt>
      <trkpt lat="43.36486" lon="-1.77005">
        <ele>19.7</ele>
        <time>2020-07-04T16:52:55Z</time>
      </trkpt>
      <trkpt lat="43.36497" lon="-1.77">
        <ele>19.6</ele>
        <time>2020-07-04T16:52:58Z</time>
      </trkpt>
      <trkpt lat="43.36506" lon="-1.76996">
        <ele>19.6</ele>
        <time>2020-07-04T16:53:01Z</time>
      </trkpt>
      <trkpt lat="43.36517" lon="-1.76993">
        <ele>19.5</ele>
        <time>2020-07-04T16:53:04Z</time>
      </trkpt>
      <trkpt lat="43.3653" lon="-1.76992">
        <ele>19.4</ele>
        <time>2020-07-04T16:53:07Z</time>
      </trkpt>
      <trkpt lat="43.3654" lon="-1.76994">
        <ele>19.4</ele>
        <time>2020-07-04T16:53:09Z</time>
      </trkpt>
      <trkpt lat="43.3655" lon="-1.76998">
        <ele>19.3</ele>
        <time>2020-07-04T16:53:11Z</time>
      </trkpt>
      <trkpt lat="43.3656" lon="-1.77003">
        <ele>19.3</ele>
        <time>2020-07-04T16:53:13Z</time>
      </trkpt>
      <trkpt lat="43.3657" lon="-1.77009">
        <ele>19.3</ele>
        <time>2020-07-04T16:53:15Z</time>
      </trkpt>
      <trkpt lat="43.3658" lon="-1.77016">
        <ele>19.2</ele>
        <time>2020-07-04T16:53:17Z</time>
      </trkpt>
      <trkpt lat="43.36589" lon="-1.77023">
        <ele>19.2</ele>
        <time>2020-07-04T16:53:19Z</time>
      </trkpt>
      <trkpt lat="43.36599" lon="-1.77029">
        <ele>19.3</ele>
        <time>2020-07-04T16:53:21Z</time>
      </trkpt>
      <trkpt lat="43.36608" lon="-1.77035">
        <ele>19.3</ele>
        <time>2020-07-04T16:53:23Z</time>
      </trkpt>
      <trkpt lat="43.36618" lon="-1.77042">
        <ele>19.3</ele>
        <time>2020-07-04T16:53:25Z</time>
      </trkpt>
      <trkpt lat="43.36628" lon="-1.77049">
        <ele>19.3</ele>
        <time>2020-07-04T16:53:27Z</time>
      </trkpt>
      <trkpt lat="43.36639" lon="-1.77056">
        <ele>19.3</ele>
        <time>2020-07-04T16:53:29Z</time>
      </trkpt>
      <trkpt lat="43.36648" lon="-1.77062">
        <ele>19.4</ele>
        <time>2020-07-04T16:53:31Z</time>
      </trkpt>
      <trkpt lat="43.36658" lon="-1.77068">
        <ele>19.4</ele>
        <time>2020-07-04T16:53:33Z</time>
      </trkpt>
      <trkpt lat="43.36666" lon="-1.77074">
        <ele>19.4</ele>
        <time>2020-07-04T16:53:35Z</time>
      </trkpt>
      <trkpt lat="43.36674" lon="-1.7708">
        <ele>19.4</ele>
        <time>2020-07-04T16:53:37Z</time>
      </trkpt>
      <trkpt lat="43.36683" lon="-1.77086">
        <ele>19.4</ele>
        <time>2020-07-04T16:53:39Z</time>
      </trkpt>
      <trkpt lat="43.36692" lon="-1.77092">
        <ele>19.4</ele>
        <time>2020-07-04T16:53:41Z</time>
      </trkpt>
      <trkpt lat="43.36701" lon="-1.77098">
        <ele>19.4</ele>
        <time>2020-07-04T16:53:43Z</time>
      </trkpt>
      <trkpt lat="43.3671" lon="-1.77103">
        <ele>19.4</ele>
        <time>2020-07-04T16:53:45Z</time>
      </trkpt>
      <trkpt lat="43.36718" lon="-1.77109">
        <ele>19.4</ele>
        <time>2020-07-04T16:53:47Z</time>
      </trkpt>
      <trkpt lat="43.36727" lon="-1.77116">
        <ele>19.4</ele>
        <time>2020-07-04T16:53:49Z</time>
      </trkpt>
      <trkpt lat="43.36737" lon="-1.77122">
        <ele>19.3</ele>
        <time>2020-07-04T16:53:51Z</time>
      </trkpt>
      <trkpt lat="43.36746" lon="-1.77129">
        <ele>19.3</ele>
        <time>2020-07-04T16:53:53Z</time>
      </trkpt>
      <trkpt lat="43.36755" lon="-1.77135">
        <ele>19.2</ele>
        <time>2020-07-04T16:53:55Z</time>
      </trkpt>
      <trkpt lat="43.36763" lon="-1.7714">
        <ele>19.1</ele>
        <time>2020-07-04T16:53:57Z</time>
      </trkpt>
      <trkpt lat="43.36775" lon="-1.77148">
        <ele>19</ele>
        <time>2020-07-04T16:54:00Z</time>
      </trkpt>
      <trkpt lat="43.36787" lon="-1.77156">
        <ele>18.9</ele>
        <time>2020-07-04T16:54:03Z</time>
      </trkpt>
      <trkpt lat="43.36798" lon="-1.77162">
        <ele>18.8</ele>
        <time>2020-07-04T16:54:06Z</time>
      </trkpt>
      <trkpt lat="43.36806" lon="-1.77167">
        <ele>17.8</ele>
        <time>2020-07-04T16:54:28Z</time>
      </trkpt>
      <trkpt lat="43.36816" lon="-1.77174">
        <ele>17.5</ele>
        <time>2020-07-04T16:55:05Z</time>
      </trkpt>
      <trkpt lat="43.36826" lon="-1.77181">
        <ele>17.6</ele>
        <time>2020-07-04T16:55:08Z</time>
      </trkpt>
      <trkpt lat="43.36835" lon="-1.77188">
        <ele>17.6</ele>
        <time>2020-07-04T16:55:10Z</time>
      </trkpt>
      <trkpt lat="43.36846" lon="-1.77195">
        <ele>17.8</ele>
        <time>2020-07-04T16:55:12Z</time>
      </trkpt>
      <trkpt lat="43.36857" lon="-1.77203">
        <ele>17.9</ele>
        <time>2020-07-04T16:55:14Z</time>
      </trkpt>
      <trkpt lat="43.36868" lon="-1.77211">
        <ele>18</ele>
        <time>2020-07-04T16:55:16Z</time>
      </trkpt>
      <trkpt lat="43.3688" lon="-1.77219">
        <ele>18.1</ele>
        <time>2020-07-04T16:55:18Z</time>
      </trkpt>
      <trkpt lat="43.36891" lon="-1.77228">
        <ele>18.1</ele>
        <time>2020-07-04T16:55:20Z</time>
      </trkpt>
      <trkpt lat="43.36902" lon="-1.77238">
        <ele>18.1</ele>
        <time>2020-07-04T16:55:22Z</time>
      </trkpt>
      <trkpt lat="43.36913" lon="-1.77249">
        <ele>18.1</ele>
        <time>2020-07-04T16:55:24Z</time>
      </trkpt>
      <trkpt lat="43.36923" lon="-1.7726">
        <ele>18.1</ele>
        <time>2020-07-04T16:55:26Z</time>
      </trkpt>
      <trkpt lat="43.36932" lon="-1.77272">
        <ele>18.1</ele>
        <time>2020-07-04T16:55:28Z</time>
      </trkpt>
      <trkpt lat="43.36941" lon="-1.77283">
        <ele>18.1</ele>
        <time>2020-07-04T16:55:30Z</time>
      </trkpt>
      <trkpt lat="43.3695" lon="-1.77294">
        <ele>18.1</ele>
        <time>2020-07-04T16:55:32Z</time>
      </trkpt>
      <trkpt lat="43.36958" lon="-1.77304">
        <ele>18.1</ele>
        <time>2020-07-04T16:55:34Z</time>
      </trkpt>
      <trkpt lat="43.36967" lon="-1.77314">
        <ele>18.1</ele>
        <time>2020-07-04T16:55:36Z</time>
      </trkpt>
      <trkpt lat="43.36975" lon="-1.77324">
        <ele>18.1</ele>
        <time>2020-07-04T16:55:38Z</time>
      </trkpt>
      <trkpt lat="43.36983" lon="-1.77335">
        <ele>18.1</ele>
        <time>2020-07-04T16:55:40Z</time>
      </trkpt>
      <trkpt lat="43.36983" lon="-1.77339">
        <ele>16.6</ele>
        <time>2020-07-04T16:57:06Z</time>
      </trkpt>
      <trkpt lat="43.36984" lon="-1.77325">
        <ele>16.3</ele>
        <time>2020-07-04T16:57:25Z</time>
      </trkpt>
      <trkpt lat="43.36988" lon="-1.77311">
        <ele>16.3</ele>
        <time>2020-07-04T16:57:30Z</time>
      </trkpt>
      <trkpt lat="43.36996" lon="-1.77302">
        <ele>15.6</ele>
        <time>2020-07-04T16:58:07Z</time>
      </trkpt>
      <trkpt lat="43.37004" lon="-1.77293">
        <ele>15.5</ele>
        <time>2020-07-04T16:58:11Z</time>
      </trkpt>
      <trkpt lat="43.37013" lon="-1.77284">
        <ele>15.5</ele>
        <time>2020-07-04T16:58:14Z</time>
      </trkpt>
      <trkpt lat="43.37022" lon="-1.77273">
        <ele>15.5</ele>
        <time>2020-07-04T16:58:17Z</time>
      </trkpt>
      <trkpt lat="43.37031" lon="-1.77263">
        <ele>15.5</ele>
        <time>2020-07-04T16:58:20Z</time>
      </trkpt>
      <trkpt lat="43.37038" lon="-1.77253">
        <ele>15.5</ele>
        <time>2020-07-04T16:58:23Z</time>
      </trkpt>
      <trkpt lat="43.37045" lon="-1.77244">
        <ele>15.7</ele>
        <time>2020-07-04T16:58:28Z</time>
      </trkpt>
      <trkpt lat="43.37052" lon="-1.77236">
        <ele>16</ele>
        <time>2020-07-04T16:58:46Z</time>
      </trkpt>
      <trkpt lat="43.37063" lon="-1.77234">
        <ele>16</ele>
        <time>2020-07-04T16:58:50Z</time>
      </trkpt>
      <trkpt lat="43.37072" lon="-1.77244">
        <ele>16</ele>
        <time>2020-07-04T16:58:54Z</time>
      </trkpt>
      <trkpt lat="43.37082" lon="-1.77251">
        <ele>16</ele>
        <time>2020-07-04T16:58:57Z</time>
      </trkpt>
      <trkpt lat="43.3709" lon="-1.77257">
        <ele>15.9</ele>
        <time>2020-07-04T16:59:00Z</time>
      </trkpt>
      <trkpt lat="43.37101" lon="-1.77265">
        <ele>15.9</ele>
        <time>2020-07-04T16:59:03Z</time>
      </trkpt>
      <trkpt lat="43.37112" lon="-1.77272">
        <ele>15.9</ele>
        <time>2020-07-04T16:59:06Z</time>
      </trkpt>
      <trkpt lat="43.37123" lon="-1.77281">
        <ele>15.9</ele>
        <time>2020-07-04T16:59:09Z</time>
      </trkpt>
      <trkpt lat="43.37133" lon="-1.77287">
        <ele>15.8</ele>
        <time>2020-07-04T16:59:12Z</time>
      </trkpt>
      <trkpt lat="43.37144" lon="-1.77282">
        <ele>15.8</ele>
        <time>2020-07-04T16:59:15Z</time>
      </trkpt>
      <trkpt lat="43.37156" lon="-1.77276">
        <ele>15.8</ele>
        <time>2020-07-04T16:59:18Z</time>
      </trkpt>
      <trkpt lat="43.37168" lon="-1.77278">
        <ele>15.8</ele>
        <time>2020-07-04T16:59:21Z</time>
      </trkpt>
      <trkpt lat="43.37178" lon="-1.77286">
        <ele>15.7</ele>
        <time>2020-07-04T16:59:24Z</time>
      </trkpt>
      <trkpt lat="43.37185" lon="-1.77295">
        <ele>15.6</ele>
        <time>2020-07-04T16:59:27Z</time>
      </trkpt>
      <trkpt lat="43.37193" lon="-1.77302">
        <ele>15.4</ele>
        <time>2020-07-04T16:59:37Z</time>
      </trkpt>
      <trkpt lat="43.37203" lon="-1.77297">
        <ele>15.3</ele>
        <time>2020-07-04T16:59:41Z</time>
      </trkpt>
      <trkpt lat="43.37211" lon="-1.77293">
        <ele>15.2</ele>
        <time>2020-07-04T16:59:44Z</time>
      </trkpt>
      <trkpt lat="43.3722" lon="-1.77289">
        <ele>15.2</ele>
        <time>2020-07-04T16:59:47Z</time>
      </trkpt>
      <trkpt lat="43.3723" lon="-1.77286">
        <ele>15.1</ele>
        <time>2020-07-04T16:59:50Z</time>
      </trkpt>
      <trkpt lat="43.3724" lon="-1.77282">
        <ele>15</ele>
        <time>2020-07-04T16:59:53Z</time>
      </trkpt>
      <trkpt lat="43.3725" lon="-1.77279">
        <ele>15</ele>
        <time>2020-07-04T16:59:56Z</time>
      </trkpt>
      <trkpt lat="43.37261" lon="-1.77276">
        <ele>15</ele>
        <time>2020-07-04T16:59:59Z</time>
      </trkpt>
      <trkpt lat="43.37272" lon="-1.77271">
        <ele>15</ele>
        <time>2020-07-04T17:00:02Z</time>
      </trkpt>
      <trkpt lat="43.37284" lon="-1.77266">
        <ele>15</ele>
        <time>2020-07-04T17:00:05Z</time>
      </trkpt>
      <trkpt lat="43.37295" lon="-1.77261">
        <ele>15</ele>
        <time>2020-07-04T17:00:08Z</time>
      </trkpt>
      <trkpt lat="43.37306" lon="-1.77256">
        <ele>15</ele>
        <time>2020-07-04T17:00:11Z</time>
      </trkpt>
      <trkpt lat="43.37317" lon="-1.77254">
        <ele>15</ele>
        <time>2020-07-04T17:00:14Z</time>
      </trkpt>
      <trkpt lat="43.37326" lon="-1.77258">
        <ele>14.9</ele>
        <time>2020-07-04T17:00:18Z</time>
      </trkpt>
      <trkpt lat="43.37331" lon="-1.77269">
        <ele>14.9</ele>
        <time>2020-07-04T17:00:22Z</time>
      </trkpt>
      <trkpt lat="43.37336" lon="-1.7728">
        <ele>14.9</ele>
        <time>2020-07-04T17:00:26Z</time>
      </trkpt>
      <trkpt lat="43.37342" lon="-1.77289">
        <ele>14.9</ele>
        <time>2020-07-04T17:00:34Z</time>
      </trkpt>
      <trkpt lat="43.37344" lon="-1.77292">
        <ele>13.5</ele>
        <time>2020-07-04T17:03:44Z</time>
      </trkpt>
    </trkseg>
  </trk>
</gpx>